<?xml version="1.0" encoding="UTF-8" standalone="no" ?>
<gpx xmlns="http://www.topografix.com/GPX/1/1" xmlns:xsi="http://www.w3.org/2001/XMLSchema-instance" xsi:schemaLocation="http://www.topografix.com/GPX/1/1 http://www.topografix.com/GPX/1/1/gpx.xsd" version="1.1" creator="VisuGPX - https://www.visugpx.com">
  <metadata>
    <name>Pointe de Bindy</name>
    <desc><![CDATA[Une petite randonnée le long des côtes pour se mettre en appétit d'un bon plat de fruits de mer 😊.
Pas de difficulté particulière. ]]></desc>
  </metadata>
  <trk>
    <name><![CDATA[Bindy]]></name>
    <extensions>
      <line xmlns="http://www.topografix.com/GPX/gpx_style/0/2">
        <color>ff0000</color>
        <opacity>1</opacity>
        <width>5</width>
      </line>
    </extensions>
    <trkseg>
      <trkpt lat="48.31616" lon="-4.31445">
        <ele>4</ele>
        <time>2025-03-27T08:35:02.000Z</time>
        <extensions>
          <visugpx:TrkExtension xmlns:visugpx="https://www.visugpx.com/editgpx/">
            <visugpx:node>16</visugpx:node>
            </visugpx:TrkExtension>
        </extensions>
      </trkpt>
      <trkpt lat="48.31613" lon="-4.31449">
        <ele>4</ele>
        <time>2025-03-27T08:35:06.908Z</time>
      </trkpt>
      <trkpt lat="48.31609" lon="-4.31456">
        <ele>3.9</ele>
        <time>2025-03-27T08:35:14.056Z</time>
      </trkpt>
      <trkpt lat="48.31606" lon="-4.3146">
        <ele>3.7</ele>
        <time>2025-03-27T08:35:18.351Z</time>
      </trkpt>
      <trkpt lat="48.31603" lon="-4.31468">
        <ele>3.7</ele>
        <time>2025-03-27T08:35:25.827Z</time>
      </trkpt>
      <trkpt lat="48.31602" lon="-4.31476">
        <ele>4.1</ele>
        <time>2025-03-27T08:35:34.236Z</time>
      </trkpt>
      <trkpt lat="48.31602" lon="-4.31488">
        <ele>5.6</ele>
        <time>2025-03-27T08:35:52.975Z</time>
      </trkpt>
      <trkpt lat="48.31604" lon="-4.31498">
        <ele>6.7</ele>
        <time>2025-03-27T08:36:07.176Z</time>
      </trkpt>
      <trkpt lat="48.31605" lon="-4.31507">
        <ele>8.2</ele>
        <time>2025-03-27T08:36:25.250Z</time>
      </trkpt>
      <trkpt lat="48.3161" lon="-4.31519">
        <ele>9.8</ele>
        <time>2025-03-27T08:36:45.481Z</time>
      </trkpt>
      <trkpt lat="48.31614" lon="-4.3153">
        <ele>11</ele>
        <time>2025-03-27T08:37:02.574Z</time>
      </trkpt>
      <trkpt lat="48.31618" lon="-4.31539">
        <ele>11.8</ele>
        <time>2025-03-27T08:37:15.010Z</time>
      </trkpt>
      <trkpt lat="48.31621" lon="-4.31548">
        <ele>12.6</ele>
        <time>2025-03-27T08:37:27.446Z</time>
      </trkpt>
      <trkpt lat="48.31624" lon="-4.31555">
        <ele>13.1</ele>
        <time>2025-03-27T08:37:36.543Z</time>
      </trkpt>
      <trkpt lat="48.31628" lon="-4.31564">
        <ele>13.2</ele>
        <time>2025-03-27T08:37:45.070Z</time>
      </trkpt>
      <trkpt lat="48.31631" lon="-4.31572">
        <ele>13.3</ele>
        <time>2025-03-27T08:37:53.598Z</time>
      </trkpt>
      <trkpt lat="48.31635" lon="-4.3158">
        <ele>13.3</ele>
        <time>2025-03-27T08:38:01.745Z</time>
      </trkpt>
      <trkpt lat="48.31639" lon="-4.31588">
        <ele>13.3</ele>
        <time>2025-03-27T08:38:09.892Z</time>
      </trkpt>
      <trkpt lat="48.31644" lon="-4.31595">
        <ele>13.5</ele>
        <time>2025-03-27T08:38:19.058Z</time>
      </trkpt>
      <trkpt lat="48.31649" lon="-4.31599">
        <ele>13.6</ele>
        <time>2025-03-27T08:38:26.382Z</time>
      </trkpt>
      <trkpt lat="48.31655" lon="-4.31604">
        <ele>13.7</ele>
        <time>2025-03-27T08:38:34.436Z</time>
      </trkpt>
      <trkpt lat="48.3166" lon="-4.31608">
        <ele>13.9</ele>
        <time>2025-03-27T08:38:42.909Z</time>
      </trkpt>
      <trkpt lat="48.31665" lon="-4.31613">
        <ele>14.2</ele>
        <time>2025-03-27T08:38:50.804Z</time>
      </trkpt>
      <trkpt lat="48.31669" lon="-4.31617">
        <ele>14.3</ele>
        <time>2025-03-27T08:38:57.812Z</time>
      </trkpt>
      <trkpt lat="48.31677" lon="-4.31623">
        <ele>14.5</ele>
        <time>2025-03-27T08:39:09.546Z</time>
      </trkpt>
      <trkpt lat="48.31685" lon="-4.31627">
        <ele>14.5</ele>
        <time>2025-03-27T08:39:19.865Z</time>
      </trkpt>
      <trkpt lat="48.3169" lon="-4.31628">
        <ele>14.3</ele>
        <time>2025-03-27T08:39:25.306Z</time>
      </trkpt>
      <trkpt lat="48.31695" lon="-4.31628">
        <ele>14.2</ele>
        <time>2025-03-27T08:39:31.078Z</time>
      </trkpt>
      <trkpt lat="48.31703" lon="-4.31627">
        <ele>13.7</ele>
        <time>2025-03-27T08:39:39.143Z</time>
      </trkpt>
      <trkpt lat="48.3171" lon="-4.31626">
        <ele>13.2</ele>
        <time>2025-03-27T08:39:47.207Z</time>
      </trkpt>
      <trkpt lat="48.31716" lon="-4.31626">
        <ele>12.9</ele>
        <time>2025-03-27T08:39:53.108Z</time>
      </trkpt>
      <trkpt lat="48.31721" lon="-4.31625">
        <ele>12.6</ele>
        <time>2025-03-27T08:39:59.010Z</time>
      </trkpt>
      <trkpt lat="48.31726" lon="-4.31624">
        <ele>12.1</ele>
        <time>2025-03-27T08:40:04.412Z</time>
      </trkpt>
      <trkpt lat="48.31731" lon="-4.31623">
        <ele>11.6</ele>
        <time>2025-03-27T08:40:09.814Z</time>
      </trkpt>
      <trkpt lat="48.31738" lon="-4.31621">
        <ele>10.8</ele>
        <time>2025-03-27T08:40:17.709Z</time>
      </trkpt>
      <trkpt lat="48.31746" lon="-4.31619">
        <ele>10</ele>
        <time>2025-03-27T08:40:25.603Z</time>
      </trkpt>
      <trkpt lat="48.31753" lon="-4.31617">
        <ele>9.3</ele>
        <time>2025-03-27T08:40:33.498Z</time>
      </trkpt>
      <trkpt lat="48.3176" lon="-4.31615">
        <ele>8.9</ele>
        <time>2025-03-27T08:40:41.392Z</time>
      </trkpt>
      <trkpt lat="48.31766" lon="-4.31613">
        <ele>8.6</ele>
        <time>2025-03-27T08:40:47.413Z</time>
      </trkpt>
      <trkpt lat="48.31771" lon="-4.31612">
        <ele>8.3</ele>
        <time>2025-03-27T08:40:53.434Z</time>
      </trkpt>
      <trkpt lat="48.31777" lon="-4.3161">
        <ele>8</ele>
        <time>2025-03-27T08:40:59.456Z</time>
      </trkpt>
      <trkpt lat="48.31782" lon="-4.31608">
        <ele>7.9</ele>
        <time>2025-03-27T08:41:05.974Z</time>
      </trkpt>
      <trkpt lat="48.31789" lon="-4.31606">
        <ele>7.9</ele>
        <time>2025-03-27T08:41:14.695Z</time>
      </trkpt>
      <trkpt lat="48.31794" lon="-4.31603">
        <ele>7.9</ele>
        <time>2025-03-27T08:41:21.285Z</time>
      </trkpt>
      <trkpt lat="48.31799" lon="-4.31602">
        <ele>7.9</ele>
        <time>2025-03-27T08:41:26.927Z</time>
      </trkpt>
      <trkpt lat="48.31803" lon="-4.316">
        <ele>8</ele>
        <time>2025-03-27T08:41:32.964Z</time>
      </trkpt>
      <trkpt lat="48.31808" lon="-4.31599">
        <ele>8.4</ele>
        <time>2025-03-27T08:41:41.007Z</time>
      </trkpt>
      <trkpt lat="48.31813" lon="-4.31597">
        <ele>9.1</ele>
        <time>2025-03-27T08:41:50.902Z</time>
      </trkpt>
      <trkpt lat="48.31818" lon="-4.31596">
        <ele>9.8</ele>
        <time>2025-03-27T08:42:00.798Z</time>
      </trkpt>
      <trkpt lat="48.31823" lon="-4.31594">
        <ele>10.5</ele>
        <time>2025-03-27T08:42:10.694Z</time>
      </trkpt>
      <trkpt lat="48.31828" lon="-4.31593">
        <ele>11.2</ele>
        <time>2025-03-27T08:42:20.589Z</time>
      </trkpt>
      <trkpt lat="48.31833" lon="-4.31591">
        <ele>12</ele>
        <time>2025-03-27T08:42:31.228Z</time>
      </trkpt>
      <trkpt lat="48.31838" lon="-4.3159">
        <ele>12.5</ele>
        <time>2025-03-27T08:42:39.832Z</time>
      </trkpt>
      <trkpt lat="48.31843" lon="-4.31588">
        <ele>13</ele>
        <time>2025-03-27T08:42:48.437Z</time>
      </trkpt>
      <trkpt lat="48.31848" lon="-4.31587">
        <ele>13.6</ele>
        <time>2025-03-27T08:42:57.402Z</time>
      </trkpt>
      <trkpt lat="48.31853" lon="-4.31585">
        <ele>14.1</ele>
        <time>2025-03-27T08:43:05.736Z</time>
      </trkpt>
      <trkpt lat="48.31857" lon="-4.31584">
        <ele>14.6</ele>
        <time>2025-03-27T08:43:14.069Z</time>
      </trkpt>
      <trkpt lat="48.31862" lon="-4.31582">
        <ele>15.1</ele>
        <time>2025-03-27T08:43:22.403Z</time>
      </trkpt>
      <trkpt lat="48.31869" lon="-4.3158">
        <ele>15.6</ele>
        <time>2025-03-27T08:43:33.622Z</time>
      </trkpt>
      <trkpt lat="48.31877" lon="-4.31578">
        <ele>16.1</ele>
        <time>2025-03-27T08:43:44.841Z</time>
      </trkpt>
      <trkpt lat="48.31884" lon="-4.31576">
        <ele>16.6</ele>
        <time>2025-03-27T08:43:56.060Z</time>
      </trkpt>
      <trkpt lat="48.31891" lon="-4.31574">
        <ele>17.2</ele>
        <time>2025-03-27T08:44:07.805Z</time>
      </trkpt>
      <trkpt lat="48.31898" lon="-4.31573">
        <ele>18</ele>
        <time>2025-03-27T08:44:20.386Z</time>
      </trkpt>
      <trkpt lat="48.31905" lon="-4.31571">
        <ele>18.7</ele>
        <time>2025-03-27T08:44:32.358Z</time>
      </trkpt>
      <trkpt lat="48.3191" lon="-4.3157">
        <ele>19.3</ele>
        <time>2025-03-27T08:44:41.782Z</time>
      </trkpt>
      <trkpt lat="48.31916" lon="-4.31569">
        <ele>19.9</ele>
        <time>2025-03-27T08:44:51.206Z</time>
      </trkpt>
      <trkpt lat="48.31921" lon="-4.31568">
        <ele>20.4</ele>
        <time>2025-03-27T08:45:00.026Z</time>
      </trkpt>
      <trkpt lat="48.31926" lon="-4.31567">
        <ele>20.8</ele>
        <time>2025-03-27T08:45:08.294Z</time>
      </trkpt>
      <trkpt lat="48.31929" lon="-4.31566">
        <ele>21.1</ele>
        <time>2025-03-27T08:45:13.472Z</time>
      </trkpt>
      <trkpt lat="48.31935" lon="-4.31566">
        <ele>21.6</ele>
        <time>2025-03-27T08:45:23.106Z</time>
      </trkpt>
      <trkpt lat="48.31941" lon="-4.31565">
        <ele>22</ele>
        <time>2025-03-27T08:45:32.214Z</time>
      </trkpt>
      <trkpt lat="48.31947" lon="-4.31567">
        <ele>22.9</ele>
        <time>2025-03-27T08:45:44.549Z</time>
      </trkpt>
      <trkpt lat="48.3195" lon="-4.31569">
        <ele>23.5</ele>
        <time>2025-03-27T08:45:52.104Z</time>
      </trkpt>
      <trkpt lat="48.3195" lon="-4.31575">
        <ele>23.8</ele>
        <time>2025-03-27T08:45:58.329Z</time>
      </trkpt>
      <trkpt lat="48.31949" lon="-4.31588">
        <ele>23.8</ele>
        <time>2025-03-27T08:46:08.981Z</time>
      </trkpt>
      <trkpt lat="48.31948" lon="-4.31595">
        <ele>23.2</ele>
        <time>2025-03-27T08:46:14.219Z</time>
      </trkpt>
      <trkpt lat="48.31946" lon="-4.31602">
        <ele>22.7</ele>
        <time>2025-03-27T08:46:19.457Z</time>
      </trkpt>
      <trkpt lat="48.31945" lon="-4.31615">
        <ele>22.1</ele>
        <time>2025-03-27T08:46:28.423Z</time>
      </trkpt>
      <trkpt lat="48.31944" lon="-4.31627">
        <ele>22</ele>
        <time>2025-03-27T08:46:38.304Z</time>
      </trkpt>
      <trkpt lat="48.31949" lon="-4.3163">
        <ele>22.6</ele>
        <time>2025-03-27T08:46:47.826Z</time>
      </trkpt>
      <trkpt lat="48.31953" lon="-4.31634">
        <ele>23.1</ele>
        <time>2025-03-27T08:46:56.105Z</time>
      </trkpt>
      <trkpt lat="48.31956" lon="-4.31641">
        <ele>23.1</ele>
        <time>2025-03-27T08:47:02.883Z</time>
      </trkpt>
      <trkpt lat="48.31958" lon="-4.31649">
        <ele>22.7</ele>
        <time>2025-03-27T08:47:08.803Z</time>
      </trkpt>
      <trkpt lat="48.31959" lon="-4.31657">
        <ele>22.2</ele>
        <time>2025-03-27T08:47:14.723Z</time>
      </trkpt>
      <trkpt lat="48.31962" lon="-4.31663">
        <ele>21.9</ele>
        <time>2025-03-27T08:47:20.060Z</time>
      </trkpt>
      <trkpt lat="48.31965" lon="-4.3167">
        <ele>21.5</ele>
        <time>2025-03-27T08:47:25.398Z</time>
      </trkpt>
      <trkpt lat="48.31967" lon="-4.31676">
        <ele>21.2</ele>
        <time>2025-03-27T08:47:30.735Z</time>
      </trkpt>
      <trkpt lat="48.3197" lon="-4.31682">
        <ele>20.8</ele>
        <time>2025-03-27T08:47:36.073Z</time>
      </trkpt>
      <trkpt lat="48.31975" lon="-4.31693">
        <ele>20.2</ele>
        <time>2025-03-27T08:47:45.562Z</time>
      </trkpt>
      <trkpt lat="48.31976" lon="-4.31697">
        <ele>20</ele>
        <time>2025-03-27T08:47:48.606Z</time>
      </trkpt>
      <trkpt lat="48.31982" lon="-4.31707">
        <ele>19.8</ele>
        <time>2025-03-27T08:47:58.552Z</time>
      </trkpt>
      <trkpt lat="48.31988" lon="-4.31716">
        <ele>19.4</ele>
        <time>2025-03-27T08:48:07.884Z</time>
      </trkpt>
      <trkpt lat="48.31993" lon="-4.31725">
        <ele>18.8</ele>
        <time>2025-03-27T08:48:16.236Z</time>
      </trkpt>
      <trkpt lat="48.31999" lon="-4.31733">
        <ele>18.3</ele>
        <time>2025-03-27T08:48:24.592Z</time>
      </trkpt>
      <trkpt lat="48.32005" lon="-4.3174">
        <ele>17.6</ele>
        <time>2025-03-27T08:48:32.949Z</time>
      </trkpt>
      <trkpt lat="48.32011" lon="-4.31748">
        <ele>16.8</ele>
        <time>2025-03-27T08:48:41.305Z</time>
      </trkpt>
      <trkpt lat="48.32017" lon="-4.31755">
        <ele>16.2</ele>
        <time>2025-03-27T08:48:49.661Z</time>
      </trkpt>
      <trkpt lat="48.32022" lon="-4.3176">
        <ele>15.9</ele>
        <time>2025-03-27T08:48:55.654Z</time>
      </trkpt>
      <trkpt lat="48.32026" lon="-4.31765">
        <ele>15.5</ele>
        <time>2025-03-27T08:49:01.646Z</time>
      </trkpt>
      <trkpt lat="48.3203" lon="-4.3177">
        <ele>15.2</ele>
        <time>2025-03-27T08:49:06.996Z</time>
      </trkpt>
      <trkpt lat="48.32034" lon="-4.31774">
        <ele>14.9</ele>
        <time>2025-03-27T08:49:12.346Z</time>
      </trkpt>
      <trkpt lat="48.32039" lon="-4.31779">
        <ele>14.6</ele>
        <time>2025-03-27T08:49:18.777Z</time>
      </trkpt>
      <trkpt lat="48.32044" lon="-4.31784">
        <ele>14.2</ele>
        <time>2025-03-27T08:49:25.208Z</time>
      </trkpt>
      <trkpt lat="48.32049" lon="-4.31789">
        <ele>13.8</ele>
        <time>2025-03-27T08:49:31.639Z</time>
      </trkpt>
      <trkpt lat="48.32054" lon="-4.31794">
        <ele>13.5</ele>
        <time>2025-03-27T08:49:38.070Z</time>
      </trkpt>
      <trkpt lat="48.32059" lon="-4.31799">
        <ele>13.1</ele>
        <time>2025-03-27T08:49:44.405Z</time>
      </trkpt>
      <trkpt lat="48.32064" lon="-4.31804">
        <ele>12.8</ele>
        <time>2025-03-27T08:49:50.739Z</time>
      </trkpt>
      <trkpt lat="48.32069" lon="-4.31808">
        <ele>12.4</ele>
        <time>2025-03-27T08:49:57.073Z</time>
      </trkpt>
      <trkpt lat="48.32074" lon="-4.31813">
        <ele>12.1</ele>
        <time>2025-03-27T08:50:03.407Z</time>
      </trkpt>
      <trkpt lat="48.3208" lon="-4.31818">
        <ele>11.7</ele>
        <time>2025-03-27T08:50:10.842Z</time>
      </trkpt>
      <trkpt lat="48.32086" lon="-4.31824">
        <ele>11.3</ele>
        <time>2025-03-27T08:50:18.277Z</time>
      </trkpt>
      <trkpt lat="48.32092" lon="-4.31829">
        <ele>10.9</ele>
        <time>2025-03-27T08:50:25.711Z</time>
      </trkpt>
      <trkpt lat="48.32098" lon="-4.31834">
        <ele>10.4</ele>
        <time>2025-03-27T08:50:33.146Z</time>
      </trkpt>
      <trkpt lat="48.32103" lon="-4.31837">
        <ele>10.1</ele>
        <time>2025-03-27T08:50:38.455Z</time>
      </trkpt>
      <trkpt lat="48.32107" lon="-4.3184">
        <ele>9.7</ele>
        <time>2025-03-27T08:50:43.763Z</time>
      </trkpt>
      <trkpt lat="48.32112" lon="-4.31843">
        <ele>9.3</ele>
        <time>2025-03-27T08:50:49.072Z</time>
      </trkpt>
      <trkpt lat="48.32116" lon="-4.31847">
        <ele>8.9</ele>
        <time>2025-03-27T08:50:54.381Z</time>
      </trkpt>
      <trkpt lat="48.32121" lon="-4.3185">
        <ele>8.5</ele>
        <time>2025-03-27T08:50:59.689Z</time>
      </trkpt>
      <trkpt lat="48.32125" lon="-4.31853">
        <ele>8.1</ele>
        <time>2025-03-27T08:51:04.998Z</time>
      </trkpt>
      <trkpt lat="48.3213" lon="-4.31856">
        <ele>7.7</ele>
        <time>2025-03-27T08:51:10.307Z</time>
      </trkpt>
      <trkpt lat="48.32134" lon="-4.31859">
        <ele>7.3</ele>
        <time>2025-03-27T08:51:15.615Z</time>
      </trkpt>
      <trkpt lat="48.32138" lon="-4.31862">
        <ele>7</ele>
        <time>2025-03-27T08:51:20.403Z</time>
      </trkpt>
      <trkpt lat="48.32146" lon="-4.31866">
        <ele>6.8</ele>
        <time>2025-03-27T08:51:29.429Z</time>
      </trkpt>
      <trkpt lat="48.32153" lon="-4.3187">
        <ele>6.5</ele>
        <time>2025-03-27T08:51:38.125Z</time>
        <extensions>
          <visugpx:TrkExtension xmlns:visugpx="https://www.visugpx.com/editgpx/">
            <visugpx:node>1</visugpx:node>
            </visugpx:TrkExtension>
        </extensions>
      </trkpt>
      <trkpt lat="48.32159" lon="-4.31873">
        <ele>6.3</ele>
        <time>2025-03-27T08:51:44.585Z</time>
      </trkpt>
      <trkpt lat="48.32164" lon="-4.31876">
        <ele>6.1</ele>
        <time>2025-03-27T08:51:51.045Z</time>
      </trkpt>
      <trkpt lat="48.3217" lon="-4.31879">
        <ele>5.9</ele>
        <time>2025-03-27T08:51:57.505Z</time>
      </trkpt>
      <trkpt lat="48.32175" lon="-4.31882">
        <ele>5.8</ele>
        <time>2025-03-27T08:52:04.303Z</time>
      </trkpt>
      <trkpt lat="48.3218" lon="-4.31886">
        <ele>5.6</ele>
        <time>2025-03-27T08:52:09.811Z</time>
      </trkpt>
      <trkpt lat="48.32184" lon="-4.31889">
        <ele>5.4</ele>
        <time>2025-03-27T08:52:15.319Z</time>
      </trkpt>
      <trkpt lat="48.32189" lon="-4.31893">
        <ele>5.2</ele>
        <time>2025-03-27T08:52:20.826Z</time>
      </trkpt>
      <trkpt lat="48.32193" lon="-4.31896">
        <ele>5.1</ele>
        <time>2025-03-27T08:52:26.666Z</time>
      </trkpt>
      <trkpt lat="48.32194" lon="-4.31893">
        <ele>5</ele>
        <time>2025-03-27T08:52:29.056Z</time>
      </trkpt>
      <trkpt lat="48.32199" lon="-4.31893">
        <ele>4.9</ele>
        <time>2025-03-27T08:52:34.514Z</time>
      </trkpt>
      <trkpt lat="48.32204" lon="-4.31893">
        <ele>4.7</ele>
        <time>2025-03-27T08:52:39.641Z</time>
      </trkpt>
      <trkpt lat="48.32208" lon="-4.31892">
        <ele>4.6</ele>
        <time>2025-03-27T08:52:45.099Z</time>
      </trkpt>
      <trkpt lat="48.32213" lon="-4.31892">
        <ele>4.4</ele>
        <time>2025-03-27T08:52:50.227Z</time>
        <extensions>
          <visugpx:TrkExtension xmlns:visugpx="https://www.visugpx.com/editgpx/">
            <visugpx:node>2</visugpx:node>
            </visugpx:TrkExtension>
        </extensions>
      </trkpt>
      <trkpt lat="48.32217" lon="-4.31891">
        <ele>4.2</ele>
        <time>2025-03-27T08:52:54.570Z</time>
      </trkpt>
      <trkpt lat="48.32216" lon="-4.31899">
        <ele>4.5</ele>
        <time>2025-03-27T08:53:02.231Z</time>
      </trkpt>
      <trkpt lat="48.32214" lon="-4.31906">
        <ele>4.7</ele>
        <time>2025-03-27T08:53:09.426Z</time>
      </trkpt>
      <trkpt lat="48.32213" lon="-4.31915">
        <ele>5</ele>
        <time>2025-03-27T08:53:18.115Z</time>
      </trkpt>
      <trkpt lat="48.32216" lon="-4.31922">
        <ele>5</ele>
        <time>2025-03-27T08:53:24.893Z</time>
      </trkpt>
      <trkpt lat="48.3222" lon="-4.31932">
        <ele>5.1</ele>
        <time>2025-03-27T08:53:34.121Z</time>
      </trkpt>
      <trkpt lat="48.32223" lon="-4.31941">
        <ele>4.9</ele>
        <time>2025-03-27T08:53:42.250Z</time>
      </trkpt>
      <trkpt lat="48.32224" lon="-4.31949">
        <ele>4.9</ele>
        <time>2025-03-27T08:53:48.790Z</time>
      </trkpt>
      <trkpt lat="48.32224" lon="-4.31957">
        <ele>4.8</ele>
        <time>2025-03-27T08:53:54.968Z</time>
      </trkpt>
      <trkpt lat="48.32225" lon="-4.31965">
        <ele>4.8</ele>
        <time>2025-03-27T08:54:01.508Z</time>
      </trkpt>
      <trkpt lat="48.32225" lon="-4.31973">
        <ele>4.7</ele>
        <time>2025-03-27T08:54:07.686Z</time>
        <extensions>
          <visugpx:TrkExtension xmlns:visugpx="https://www.visugpx.com/editgpx/">
            <visugpx:node>3</visugpx:node>
            </visugpx:TrkExtension>
        </extensions>
      </trkpt>
      <trkpt lat="48.32226" lon="-4.31984">
        <ele>4.6</ele>
        <time>2025-03-27T08:54:15.888Z</time>
      </trkpt>
      <trkpt lat="48.32226" lon="-4.31994">
        <ele>4.6</ele>
        <time>2025-03-27T08:54:24.456Z</time>
      </trkpt>
      <trkpt lat="48.32228" lon="-4.32002">
        <ele>4.4</ele>
        <time>2025-03-27T08:54:30.524Z</time>
      </trkpt>
      <trkpt lat="48.3223" lon="-4.3201">
        <ele>4.2</ele>
        <time>2025-03-27T08:54:36.592Z</time>
      </trkpt>
      <trkpt lat="48.32232" lon="-4.32017">
        <ele>3.9</ele>
        <time>2025-03-27T08:54:42.512Z</time>
      </trkpt>
      <trkpt lat="48.32234" lon="-4.32025">
        <ele>3.7</ele>
        <time>2025-03-27T08:54:48.580Z</time>
      </trkpt>
      <trkpt lat="48.32235" lon="-4.32035">
        <ele>3.8</ele>
        <time>2025-03-27T08:54:56.799Z</time>
      </trkpt>
      <trkpt lat="48.32236" lon="-4.32044">
        <ele>3.8</ele>
        <time>2025-03-27T08:55:04.627Z</time>
      </trkpt>
      <trkpt lat="48.32236" lon="-4.32051">
        <ele>3.9</ele>
        <time>2025-03-27T08:55:10.719Z</time>
      </trkpt>
      <trkpt lat="48.32236" lon="-4.32058">
        <ele>4</ele>
        <time>2025-03-27T08:55:16.812Z</time>
      </trkpt>
      <trkpt lat="48.32236" lon="-4.32065">
        <ele>4</ele>
        <time>2025-03-27T08:55:22.509Z</time>
      </trkpt>
      <trkpt lat="48.32236" lon="-4.32072">
        <ele>4</ele>
        <time>2025-03-27T08:55:28.206Z</time>
      </trkpt>
      <trkpt lat="48.32237" lon="-4.32081">
        <ele>3.9</ele>
        <time>2025-03-27T08:55:34.789Z</time>
      </trkpt>
      <trkpt lat="48.32237" lon="-4.32089">
        <ele>4</ele>
        <time>2025-03-27T08:55:42.125Z</time>
      </trkpt>
      <trkpt lat="48.32237" lon="-4.32096">
        <ele>4.1</ele>
        <time>2025-03-27T08:55:48.218Z</time>
      </trkpt>
      <trkpt lat="48.32237" lon="-4.32103">
        <ele>4.2</ele>
        <time>2025-03-27T08:55:54.310Z</time>
      </trkpt>
      <trkpt lat="48.32237" lon="-4.32111">
        <ele>4.4</ele>
        <time>2025-03-27T08:56:01.446Z</time>
      </trkpt>
      <trkpt lat="48.32237" lon="-4.32119">
        <ele>4.5</ele>
        <time>2025-03-27T08:56:08.155Z</time>
      </trkpt>
      <trkpt lat="48.32236" lon="-4.32126">
        <ele>4.5</ele>
        <time>2025-03-27T08:56:14.470Z</time>
      </trkpt>
      <trkpt lat="48.32236" lon="-4.32134">
        <ele>4.5</ele>
        <time>2025-03-27T08:56:20.785Z</time>
      </trkpt>
      <trkpt lat="48.32236" lon="-4.32143">
        <ele>4.5</ele>
        <time>2025-03-27T08:56:28.110Z</time>
      </trkpt>
      <trkpt lat="48.32236" lon="-4.32152">
        <ele>4.5</ele>
        <time>2025-03-27T08:56:35.435Z</time>
        <extensions>
          <visugpx:TrkExtension xmlns:visugpx="https://www.visugpx.com/editgpx/">
            <visugpx:node>4</visugpx:node>
            </visugpx:TrkExtension>
        </extensions>
      </trkpt>
      <trkpt lat="48.32236" lon="-4.32154">
        <ele>4.5</ele>
        <time>2025-03-27T08:56:37.063Z</time>
      </trkpt>
      <trkpt lat="48.32237" lon="-4.32162">
        <ele>4.3</ele>
        <time>2025-03-27T08:56:42.991Z</time>
      </trkpt>
      <trkpt lat="48.32238" lon="-4.3217">
        <ele>4.3</ele>
        <time>2025-03-27T08:56:49.617Z</time>
      </trkpt>
      <trkpt lat="48.3224" lon="-4.32179">
        <ele>4.4</ele>
        <time>2025-03-27T08:56:57.730Z</time>
      </trkpt>
      <trkpt lat="48.32242" lon="-4.32188">
        <ele>4.5</ele>
        <time>2025-03-27T08:57:05.843Z</time>
      </trkpt>
      <trkpt lat="48.32245" lon="-4.32196">
        <ele>4.6</ele>
        <time>2025-03-27T08:57:13.709Z</time>
      </trkpt>
      <trkpt lat="48.32248" lon="-4.32204">
        <ele>4.9</ele>
        <time>2025-03-27T08:57:22.446Z</time>
      </trkpt>
      <trkpt lat="48.3225" lon="-4.32207">
        <ele>4.9</ele>
        <time>2025-03-27T08:57:25.904Z</time>
      </trkpt>
      <trkpt lat="48.32251" lon="-4.32211">
        <ele>5.1</ele>
        <time>2025-03-27T08:57:30.266Z</time>
      </trkpt>
      <trkpt lat="48.32251" lon="-4.32215">
        <ele>5.4</ele>
        <time>2025-03-27T08:57:34.993Z</time>
      </trkpt>
      <trkpt lat="48.32251" lon="-4.32221">
        <ele>5.8</ele>
        <time>2025-03-27T08:57:41.777Z</time>
      </trkpt>
      <trkpt lat="48.32254" lon="-4.32225">
        <ele>5.5</ele>
        <time>2025-03-27T08:57:46.071Z</time>
      </trkpt>
      <trkpt lat="48.32262" lon="-4.32228">
        <ele>4.5</ele>
        <time>2025-03-27T08:57:54.902Z</time>
      </trkpt>
      <trkpt lat="48.32266" lon="-4.32232">
        <ele>4.1</ele>
        <time>2025-03-27T08:58:00.046Z</time>
      </trkpt>
      <trkpt lat="48.32272" lon="-4.3224">
        <ele>3.8</ele>
        <time>2025-03-27T08:58:08.554Z</time>
      </trkpt>
      <trkpt lat="48.32278" lon="-4.32247">
        <ele>3.8</ele>
        <time>2025-03-27T08:58:18.104Z</time>
      </trkpt>
      <trkpt lat="48.32275" lon="-4.32252">
        <ele>4.3</ele>
        <time>2025-03-27T08:58:26.030Z</time>
      </trkpt>
      <trkpt lat="48.32276" lon="-4.32261">
        <ele>4.9</ele>
        <time>2025-03-27T08:58:35.937Z</time>
      </trkpt>
      <trkpt lat="48.32277" lon="-4.32269">
        <ele>5.4</ele>
        <time>2025-03-27T08:58:45.264Z</time>
      </trkpt>
      <trkpt lat="48.3228" lon="-4.32275">
        <ele>5.5</ele>
        <time>2025-03-27T08:58:51.448Z</time>
      </trkpt>
      <trkpt lat="48.32283" lon="-4.3228">
        <ele>5.4</ele>
        <time>2025-03-27T08:58:56.878Z</time>
      </trkpt>
      <trkpt lat="48.32286" lon="-4.32282">
        <ele>5.1</ele>
        <time>2025-03-27T08:59:00.393Z</time>
      </trkpt>
      <trkpt lat="48.3229" lon="-4.32286">
        <ele>4.9</ele>
        <time>2025-03-27T08:59:05.582Z</time>
      </trkpt>
      <trkpt lat="48.32294" lon="-4.3229">
        <ele>4.9</ele>
        <time>2025-03-27T08:59:11.577Z</time>
      </trkpt>
      <trkpt lat="48.32298" lon="-4.32295">
        <ele>5</ele>
        <time>2025-03-27T08:59:17.965Z</time>
      </trkpt>
      <trkpt lat="48.32302" lon="-4.32299">
        <ele>5.2</ele>
        <time>2025-03-27T08:59:24.785Z</time>
      </trkpt>
      <trkpt lat="48.32306" lon="-4.32303">
        <ele>5.6</ele>
        <time>2025-03-27T08:59:32.597Z</time>
      </trkpt>
      <trkpt lat="48.32308" lon="-4.32309">
        <ele>5.7</ele>
        <time>2025-03-27T08:59:38.455Z</time>
      </trkpt>
      <trkpt lat="48.32308" lon="-4.32318">
        <ele>6</ele>
        <time>2025-03-27T08:59:46.646Z</time>
      </trkpt>
      <trkpt lat="48.32308" lon="-4.32326">
        <ele>6.2</ele>
        <time>2025-03-27T08:59:54.379Z</time>
      </trkpt>
      <trkpt lat="48.32311" lon="-4.32332">
        <ele>5.9</ele>
        <time>2025-03-27T08:59:59.420Z</time>
      </trkpt>
      <trkpt lat="48.32313" lon="-4.32338">
        <ele>5.6</ele>
        <time>2025-03-27T09:00:04.461Z</time>
      </trkpt>
      <trkpt lat="48.32316" lon="-4.32344">
        <ele>5.3</ele>
        <time>2025-03-27T09:00:09.502Z</time>
      </trkpt>
      <trkpt lat="48.32319" lon="-4.3235">
        <ele>5.1</ele>
        <time>2025-03-27T09:00:14.573Z</time>
      </trkpt>
      <trkpt lat="48.32321" lon="-4.32355">
        <ele>4.9</ele>
        <time>2025-03-27T09:00:19.645Z</time>
      </trkpt>
      <trkpt lat="48.32324" lon="-4.32361">
        <ele>4.8</ele>
        <time>2025-03-27T09:00:25.046Z</time>
      </trkpt>
      <trkpt lat="48.32326" lon="-4.32367">
        <ele>5.2</ele>
        <time>2025-03-27T09:00:32.638Z</time>
      </trkpt>
      <trkpt lat="48.32329" lon="-4.32373">
        <ele>5.7</ele>
        <time>2025-03-27T09:00:40.810Z</time>
      </trkpt>
      <trkpt lat="48.32332" lon="-4.32382">
        <ele>6.9</ele>
        <time>2025-03-27T09:00:55.868Z</time>
      </trkpt>
      <trkpt lat="48.32334" lon="-4.32391">
        <ele>7.7</ele>
        <time>2025-03-27T09:01:07.836Z</time>
      </trkpt>
      <trkpt lat="48.32334" lon="-4.32398">
        <ele>7.2</ele>
        <time>2025-03-27T09:01:12.821Z</time>
      </trkpt>
      <trkpt lat="48.32331" lon="-4.32404">
        <ele>7.3</ele>
        <time>2025-03-27T09:01:19.325Z</time>
      </trkpt>
      <trkpt lat="48.32332" lon="-4.32414">
        <ele>6.5</ele>
        <time>2025-03-27T09:01:26.526Z</time>
      </trkpt>
      <trkpt lat="48.32329" lon="-4.32421">
        <ele>7.8</ele>
        <time>2025-03-27T09:01:42.175Z</time>
      </trkpt>
      <trkpt lat="48.32323" lon="-4.32427">
        <ele>10.2</ele>
        <time>2025-03-27T09:02:12.765Z</time>
      </trkpt>
      <trkpt lat="48.32318" lon="-4.32433">
        <ele>12.1</ele>
        <time>2025-03-27T09:02:36.329Z</time>
      </trkpt>
      <trkpt lat="48.32313" lon="-4.32438">
        <ele>13.8</ele>
        <time>2025-03-27T09:02:56.926Z</time>
        <extensions>
          <visugpx:TrkExtension xmlns:visugpx="https://www.visugpx.com/editgpx/">
            <visugpx:node>5</visugpx:node>
            </visugpx:TrkExtension>
        </extensions>
      </trkpt>
      <trkpt lat="48.32312" lon="-4.32441">
        <ele>14.4</ele>
        <time>2025-03-27T09:03:04.177Z</time>
      </trkpt>
      <trkpt lat="48.32308" lon="-4.32446">
        <ele>15.5</ele>
        <time>2025-03-27T09:03:17.568Z</time>
      </trkpt>
      <trkpt lat="48.32304" lon="-4.32451">
        <ele>15.8</ele>
        <time>2025-03-27T09:03:25.221Z</time>
      </trkpt>
      <trkpt lat="48.32301" lon="-4.32454">
        <ele>15.7</ele>
        <time>2025-03-27T09:03:29.276Z</time>
      </trkpt>
      <trkpt lat="48.32297" lon="-4.32457">
        <ele>15.7</ele>
        <time>2025-03-27T09:03:34.747Z</time>
      </trkpt>
      <trkpt lat="48.32293" lon="-4.32465">
        <ele>15.6</ele>
        <time>2025-03-27T09:03:42.208Z</time>
      </trkpt>
      <trkpt lat="48.32289" lon="-4.32472">
        <ele>15.6</ele>
        <time>2025-03-27T09:03:50.033Z</time>
      </trkpt>
      <trkpt lat="48.32287" lon="-4.32476">
        <ele>15</ele>
        <time>2025-03-27T09:03:53.597Z</time>
      </trkpt>
      <trkpt lat="48.32285" lon="-4.3248">
        <ele>14.5</ele>
        <time>2025-03-27T09:03:57.161Z</time>
      </trkpt>
      <trkpt lat="48.32281" lon="-4.3249">
        <ele>13.7</ele>
        <time>2025-03-27T09:04:05.760Z</time>
      </trkpt>
      <trkpt lat="48.32276" lon="-4.325">
        <ele>12.9</ele>
        <time>2025-03-27T09:04:14.360Z</time>
      </trkpt>
      <trkpt lat="48.32275" lon="-4.32503">
        <ele>12.3</ele>
        <time>2025-03-27T09:04:16.749Z</time>
      </trkpt>
      <trkpt lat="48.32274" lon="-4.32505">
        <ele>11.9</ele>
        <time>2025-03-27T09:04:18.532Z</time>
      </trkpt>
      <trkpt lat="48.32268" lon="-4.32512">
        <ele>10.3</ele>
        <time>2025-03-27T09:04:26.665Z</time>
      </trkpt>
      <trkpt lat="48.32264" lon="-4.32515">
        <ele>9.6</ele>
        <time>2025-03-27T09:04:31.452Z</time>
      </trkpt>
      <trkpt lat="48.32263" lon="-4.32516">
        <ele>9.4</ele>
        <time>2025-03-27T09:04:32.738Z</time>
      </trkpt>
      <trkpt lat="48.32261" lon="-4.32517">
        <ele>9.1</ele>
        <time>2025-03-27T09:04:34.995Z</time>
      </trkpt>
      <trkpt lat="48.3226" lon="-4.32516">
        <ele>9.2</ele>
        <time>2025-03-27T09:04:36.921Z</time>
      </trkpt>
      <trkpt lat="48.32258" lon="-4.32515">
        <ele>9.3</ele>
        <time>2025-03-27T09:04:39.920Z</time>
      </trkpt>
      <trkpt lat="48.32257" lon="-4.32514">
        <ele>9.4</ele>
        <time>2025-03-27T09:04:41.846Z</time>
      </trkpt>
      <trkpt lat="48.32255" lon="-4.32511">
        <ele>9.7</ele>
        <time>2025-03-27T09:04:46.750Z</time>
      </trkpt>
      <trkpt lat="48.32252" lon="-4.32506">
        <ele>10.3</ele>
        <time>2025-03-27T09:04:55.338Z</time>
      </trkpt>
      <trkpt lat="48.32249" lon="-4.32502">
        <ele>10.5</ele>
        <time>2025-03-27T09:05:01.088Z</time>
      </trkpt>
      <trkpt lat="48.32246" lon="-4.32499">
        <ele>10</ele>
        <time>2025-03-27T09:05:04.946Z</time>
      </trkpt>
      <trkpt lat="48.32245" lon="-4.32497">
        <ele>9.9</ele>
        <time>2025-03-27T09:05:06.728Z</time>
      </trkpt>
      <trkpt lat="48.32243" lon="-4.32495">
        <ele>9.5</ele>
        <time>2025-03-27T09:05:09.301Z</time>
      </trkpt>
      <trkpt lat="48.3224" lon="-4.3249">
        <ele>9.1</ele>
        <time>2025-03-27T09:05:14.097Z</time>
      </trkpt>
      <trkpt lat="48.32236" lon="-4.32488">
        <ele>8.2</ele>
        <time>2025-03-27T09:05:19.123Z</time>
      </trkpt>
      <trkpt lat="48.32231" lon="-4.32486">
        <ele>7.4</ele>
        <time>2025-03-27T09:05:24.148Z</time>
      </trkpt>
      <trkpt lat="48.32227" lon="-4.32485">
        <ele>6.6</ele>
        <time>2025-03-27T09:05:29.085Z</time>
      </trkpt>
      <trkpt lat="48.32222" lon="-4.32483">
        <ele>5.8</ele>
        <time>2025-03-27T09:05:34.021Z</time>
      </trkpt>
      <trkpt lat="48.32218" lon="-4.32483">
        <ele>5.6</ele>
        <time>2025-03-27T09:05:38.858Z</time>
      </trkpt>
      <trkpt lat="48.32213" lon="-4.32482">
        <ele>5.4</ele>
        <time>2025-03-27T09:05:43.694Z</time>
      </trkpt>
      <trkpt lat="48.32208" lon="-4.32482">
        <ele>5.1</ele>
        <time>2025-03-27T09:05:49.061Z</time>
      </trkpt>
      <trkpt lat="48.32203" lon="-4.32481">
        <ele>4.9</ele>
        <time>2025-03-27T09:05:54.502Z</time>
      </trkpt>
      <trkpt lat="48.32198" lon="-4.3248">
        <ele>4.7</ele>
        <time>2025-03-27T09:05:59.983Z</time>
      </trkpt>
      <trkpt lat="48.32193" lon="-4.32479">
        <ele>4.5</ele>
        <time>2025-03-27T09:06:05.463Z</time>
      </trkpt>
      <trkpt lat="48.32186" lon="-4.32479">
        <ele>4.5</ele>
        <time>2025-03-27T09:06:14.041Z</time>
      </trkpt>
      <trkpt lat="48.32179" lon="-4.32478">
        <ele>4.6</ele>
        <time>2025-03-27T09:06:23.008Z</time>
      </trkpt>
      <trkpt lat="48.32174" lon="-4.32478">
        <ele>4.6</ele>
        <time>2025-03-27T09:06:29.434Z</time>
      </trkpt>
      <trkpt lat="48.32169" lon="-4.32478">
        <ele>4.6</ele>
        <time>2025-03-27T09:06:35.860Z</time>
      </trkpt>
      <trkpt lat="48.32163" lon="-4.32478">
        <ele>4.6</ele>
        <time>2025-03-27T09:06:42.286Z</time>
      </trkpt>
      <trkpt lat="48.32158" lon="-4.32478">
        <ele>4.6</ele>
        <time>2025-03-27T09:06:48.712Z</time>
      </trkpt>
      <trkpt lat="48.32153" lon="-4.32478">
        <ele>4.6</ele>
        <time>2025-03-27T09:06:54.530Z</time>
      </trkpt>
      <trkpt lat="48.32149" lon="-4.32479">
        <ele>4.5</ele>
        <time>2025-03-27T09:06:59.988Z</time>
      </trkpt>
      <trkpt lat="48.32144" lon="-4.32479">
        <ele>4.5</ele>
        <time>2025-03-27T09:07:05.805Z</time>
      </trkpt>
      <trkpt lat="48.32139" lon="-4.32479">
        <ele>4.5</ele>
        <time>2025-03-27T09:07:11.623Z</time>
      </trkpt>
      <trkpt lat="48.32134" lon="-4.32481">
        <ele>4.5</ele>
        <time>2025-03-27T09:07:18.465Z</time>
      </trkpt>
      <trkpt lat="48.32128" lon="-4.32482">
        <ele>4.4</ele>
        <time>2025-03-27T09:07:24.944Z</time>
      </trkpt>
      <trkpt lat="48.32123" lon="-4.32484">
        <ele>4.4</ele>
        <time>2025-03-27T09:07:31.786Z</time>
      </trkpt>
      <trkpt lat="48.32117" lon="-4.32485">
        <ele>4.4</ele>
        <time>2025-03-27T09:07:38.628Z</time>
      </trkpt>
      <trkpt lat="48.32109" lon="-4.32486">
        <ele>4.5</ele>
        <time>2025-03-27T09:07:48.841Z</time>
      </trkpt>
      <trkpt lat="48.32101" lon="-4.32487">
        <ele>4.7</ele>
        <time>2025-03-27T09:07:59.463Z</time>
      </trkpt>
      <trkpt lat="48.32093" lon="-4.3249">
        <ele>4.8</ele>
        <time>2025-03-27T09:08:09.942Z</time>
        <extensions>
          <visugpx:TrkExtension xmlns:visugpx="https://www.visugpx.com/editgpx/">
            <visugpx:node>6</visugpx:node>
            </visugpx:TrkExtension>
        </extensions>
      </trkpt>
      <trkpt lat="48.32087" lon="-4.32492">
        <ele>4.9</ele>
        <time>2025-03-27T09:08:17.557Z</time>
      </trkpt>
      <trkpt lat="48.32082" lon="-4.32494">
        <ele>5</ele>
        <time>2025-03-27T09:08:25.172Z</time>
      </trkpt>
      <trkpt lat="48.32076" lon="-4.32496">
        <ele>5</ele>
        <time>2025-03-27T09:08:32.396Z</time>
      </trkpt>
      <trkpt lat="48.3207" lon="-4.32498">
        <ele>5</ele>
        <time>2025-03-27T09:08:39.620Z</time>
      </trkpt>
      <trkpt lat="48.32069" lon="-4.32505">
        <ele>4.6</ele>
        <time>2025-03-27T09:08:44.719Z</time>
      </trkpt>
      <trkpt lat="48.32066" lon="-4.32513">
        <ele>4.2</ele>
        <time>2025-03-27T09:08:51.260Z</time>
      </trkpt>
      <trkpt lat="48.32061" lon="-4.32516">
        <ele>4.2</ele>
        <time>2025-03-27T09:08:57.850Z</time>
      </trkpt>
      <trkpt lat="48.32056" lon="-4.32519">
        <ele>4.3</ele>
        <time>2025-03-27T09:09:04.831Z</time>
      </trkpt>
      <trkpt lat="48.32053" lon="-4.32521">
        <ele>4.5</ele>
        <time>2025-03-27T09:09:09.713Z</time>
      </trkpt>
      <trkpt lat="48.32047" lon="-4.32528">
        <ele>4.9</ele>
        <time>2025-03-27T09:09:20.704Z</time>
      </trkpt>
      <trkpt lat="48.32043" lon="-4.32529">
        <ele>5.2</ele>
        <time>2025-03-27T09:09:27.004Z</time>
      </trkpt>
      <trkpt lat="48.32037" lon="-4.32533">
        <ele>5.3</ele>
        <time>2025-03-27T09:09:35.427Z</time>
      </trkpt>
      <trkpt lat="48.32036" lon="-4.32533">
        <ele>5.4</ele>
        <time>2025-03-27T09:09:37.126Z</time>
      </trkpt>
      <trkpt lat="48.32034" lon="-4.32531">
        <ele>5.9</ele>
        <time>2025-03-27T09:09:43.230Z</time>
      </trkpt>
      <trkpt lat="48.32027" lon="-4.32533">
        <ele>6.3</ele>
        <time>2025-03-27T09:09:53.661Z</time>
      </trkpt>
      <trkpt lat="48.32022" lon="-4.32539">
        <ele>6.1</ele>
        <time>2025-03-27T09:10:00.785Z</time>
      </trkpt>
      <trkpt lat="48.32017" lon="-4.32545">
        <ele>6</ele>
        <time>2025-03-27T09:10:08.251Z</time>
      </trkpt>
      <trkpt lat="48.32011" lon="-4.32552">
        <ele>6.4</ele>
        <time>2025-03-27T09:10:19.722Z</time>
      </trkpt>
      <trkpt lat="48.32004" lon="-4.32559">
        <ele>6.8</ele>
        <time>2025-03-27T09:10:31.194Z</time>
      </trkpt>
      <trkpt lat="48.31999" lon="-4.32564">
        <ele>7</ele>
        <time>2025-03-27T09:10:39.139Z</time>
      </trkpt>
      <trkpt lat="48.31994" lon="-4.32568">
        <ele>7.1</ele>
        <time>2025-03-27T09:10:46.663Z</time>
      </trkpt>
      <trkpt lat="48.31989" lon="-4.32576">
        <ele>7.1</ele>
        <time>2025-03-27T09:10:55.599Z</time>
      </trkpt>
      <trkpt lat="48.31984" lon="-4.32584">
        <ele>7.4</ele>
        <time>2025-03-27T09:11:05.774Z</time>
      </trkpt>
      <trkpt lat="48.31981" lon="-4.32589">
        <ele>7.8</ele>
        <time>2025-03-27T09:11:13.248Z</time>
      </trkpt>
      <trkpt lat="48.31978" lon="-4.32595">
        <ele>8.3</ele>
        <time>2025-03-27T09:11:21.308Z</time>
      </trkpt>
      <trkpt lat="48.31975" lon="-4.326">
        <ele>8.7</ele>
        <time>2025-03-27T09:11:28.782Z</time>
      </trkpt>
      <trkpt lat="48.31972" lon="-4.32605">
        <ele>9.3</ele>
        <time>2025-03-27T09:11:37.493Z</time>
      </trkpt>
      <trkpt lat="48.31968" lon="-4.32612">
        <ele>9.8</ele>
        <time>2025-03-27T09:11:47.275Z</time>
      </trkpt>
      <trkpt lat="48.31965" lon="-4.32621">
        <ele>9.2</ele>
        <time>2025-03-27T09:11:54.445Z</time>
      </trkpt>
      <trkpt lat="48.31963" lon="-4.3263">
        <ele>8.5</ele>
        <time>2025-03-27T09:12:00.783Z</time>
      </trkpt>
      <trkpt lat="48.31962" lon="-4.32638">
        <ele>8</ele>
        <time>2025-03-27T09:12:07.120Z</time>
      </trkpt>
      <trkpt lat="48.3196" lon="-4.32647">
        <ele>8.1</ele>
        <time>2025-03-27T09:12:14.753Z</time>
      </trkpt>
      <trkpt lat="48.31958" lon="-4.32655">
        <ele>8.2</ele>
        <time>2025-03-27T09:12:22.387Z</time>
      </trkpt>
      <trkpt lat="48.31956" lon="-4.32668">
        <ele>8.2</ele>
        <time>2025-03-27T09:12:33.248Z</time>
      </trkpt>
      <trkpt lat="48.31954" lon="-4.3268">
        <ele>8.3</ele>
        <time>2025-03-27T09:12:43.483Z</time>
      </trkpt>
      <trkpt lat="48.31951" lon="-4.32691">
        <ele>8.3</ele>
        <time>2025-03-27T09:12:53.331Z</time>
      </trkpt>
      <trkpt lat="48.3195" lon="-4.32697">
        <ele>8.3</ele>
        <time>2025-03-27T09:12:58.365Z</time>
      </trkpt>
      <trkpt lat="48.3195" lon="-4.32702">
        <ele>8.1</ele>
        <time>2025-03-27T09:13:01.926Z</time>
      </trkpt>
      <trkpt lat="48.31949" lon="-4.32709">
        <ele>8.2</ele>
        <time>2025-03-27T09:13:08.149Z</time>
      </trkpt>
      <trkpt lat="48.31949" lon="-4.32716">
        <ele>8.1</ele>
        <time>2025-03-27T09:13:13.519Z</time>
      </trkpt>
      <trkpt lat="48.31948" lon="-4.32723">
        <ele>7.9</ele>
        <time>2025-03-27T09:13:18.560Z</time>
      </trkpt>
      <trkpt lat="48.31948" lon="-4.32729">
        <ele>7.6</ele>
        <time>2025-03-27T09:13:22.834Z</time>
      </trkpt>
      <trkpt lat="48.31948" lon="-4.32738">
        <ele>7</ele>
        <time>2025-03-27T09:13:28.887Z</time>
      </trkpt>
      <trkpt lat="48.31948" lon="-4.32746">
        <ele>6.5</ele>
        <time>2025-03-27T09:13:34.941Z</time>
      </trkpt>
      <trkpt lat="48.31948" lon="-4.32755">
        <ele>6.1</ele>
        <time>2025-03-27T09:13:40.995Z</time>
      </trkpt>
      <trkpt lat="48.31948" lon="-4.32763">
        <ele>5.8</ele>
        <time>2025-03-27T09:13:47.049Z</time>
      </trkpt>
      <trkpt lat="48.31951" lon="-4.32772">
        <ele>5.1</ele>
        <time>2025-03-27T09:13:53.668Z</time>
      </trkpt>
      <trkpt lat="48.31953" lon="-4.3278">
        <ele>4.4</ele>
        <time>2025-03-27T09:14:00.288Z</time>
      </trkpt>
      <trkpt lat="48.31954" lon="-4.32792">
        <ele>4.1</ele>
        <time>2025-03-27T09:14:08.686Z</time>
      </trkpt>
      <trkpt lat="48.31955" lon="-4.32803">
        <ele>3.9</ele>
        <time>2025-03-27T09:14:17.413Z</time>
      </trkpt>
      <trkpt lat="48.31957" lon="-4.32811">
        <ele>3.9</ele>
        <time>2025-03-27T09:14:24.296Z</time>
      </trkpt>
      <trkpt lat="48.3196" lon="-4.32819">
        <ele>4.1</ele>
        <time>2025-03-27T09:14:31.995Z</time>
      </trkpt>
      <trkpt lat="48.31962" lon="-4.32826">
        <ele>4.3</ele>
        <time>2025-03-27T09:14:39.693Z</time>
      </trkpt>
      <trkpt lat="48.31964" lon="-4.32834">
        <ele>4.6</ele>
        <time>2025-03-27T09:14:47.850Z</time>
      </trkpt>
      <trkpt lat="48.31969" lon="-4.32844">
        <ele>5</ele>
        <time>2025-03-27T09:14:59.712Z</time>
      </trkpt>
      <trkpt lat="48.31974" lon="-4.32854">
        <ele>5.2</ele>
        <time>2025-03-27T09:15:10.690Z</time>
      </trkpt>
      <trkpt lat="48.31978" lon="-4.32863">
        <ele>5.3</ele>
        <time>2025-03-27T09:15:19.889Z</time>
      </trkpt>
      <trkpt lat="48.31981" lon="-4.32867">
        <ele>5.2</ele>
        <time>2025-03-27T09:15:24.440Z</time>
      </trkpt>
      <trkpt lat="48.31986" lon="-4.32876">
        <ele>5.4</ele>
        <time>2025-03-27T09:15:34.782Z</time>
      </trkpt>
      <trkpt lat="48.3199" lon="-4.3288">
        <ele>5.2</ele>
        <time>2025-03-27T09:15:39.972Z</time>
      </trkpt>
      <trkpt lat="48.31991" lon="-4.32883">
        <ele>5.4</ele>
        <time>2025-03-27T09:15:43.629Z</time>
      </trkpt>
      <trkpt lat="48.31994" lon="-4.32886">
        <ele>5.4</ele>
        <time>2025-03-27T09:15:48.039Z</time>
      </trkpt>
      <trkpt lat="48.32002" lon="-4.3289">
        <ele>5.1</ele>
        <time>2025-03-27T09:15:56.735Z</time>
      </trkpt>
      <trkpt lat="48.32009" lon="-4.32894">
        <ele>5.5</ele>
        <time>2025-03-27T09:16:08.162Z</time>
      </trkpt>
      <trkpt lat="48.32014" lon="-4.32897">
        <ele>5.7</ele>
        <time>2025-03-27T09:16:14.861Z</time>
      </trkpt>
      <trkpt lat="48.32018" lon="-4.32899">
        <ele>6</ele>
        <time>2025-03-27T09:16:22.035Z</time>
      </trkpt>
      <trkpt lat="48.32023" lon="-4.32901">
        <ele>6.3</ele>
        <time>2025-03-27T09:16:29.655Z</time>
      </trkpt>
      <trkpt lat="48.32026" lon="-4.32901">
        <ele>6.2</ele>
        <time>2025-03-27T09:16:32.976Z</time>
      </trkpt>
      <trkpt lat="48.32026" lon="-4.32902">
        <ele>6.4</ele>
        <time>2025-03-27T09:16:35.444Z</time>
      </trkpt>
      <trkpt lat="48.32027" lon="-4.32902">
        <ele>6.4</ele>
        <time>2025-03-27T09:16:36.668Z</time>
      </trkpt>
      <trkpt lat="48.32029" lon="-4.32902">
        <ele>6.1</ele>
        <time>2025-03-27T09:16:38.810Z</time>
      </trkpt>
      <trkpt lat="48.32031" lon="-4.32902">
        <ele>5.8</ele>
        <time>2025-03-27T09:16:40.952Z</time>
      </trkpt>
      <trkpt lat="48.32038" lon="-4.329">
        <ele>4.3</ele>
        <time>2025-03-27T09:16:48.583Z</time>
      </trkpt>
      <trkpt lat="48.3204" lon="-4.32901">
        <ele>4.1</ele>
        <time>2025-03-27T09:16:50.840Z</time>
      </trkpt>
      <trkpt lat="48.32039" lon="-4.32903">
        <ele>4.5</ele>
        <time>2025-03-27T09:16:55.651Z</time>
      </trkpt>
      <trkpt lat="48.32039" lon="-4.32905">
        <ele>4.8</ele>
        <time>2025-03-27T09:16:59.273Z</time>
      </trkpt>
      <trkpt lat="48.3204" lon="-4.32911">
        <ele>5.3</ele>
        <time>2025-03-27T09:17:06.815Z</time>
      </trkpt>
      <trkpt lat="48.32042" lon="-4.32918">
        <ele>5.3</ele>
        <time>2025-03-27T09:17:13.016Z</time>
      </trkpt>
      <trkpt lat="48.32042" lon="-4.3292">
        <ele>5.1</ele>
        <time>2025-03-27T09:17:14.440Z</time>
      </trkpt>
      <trkpt lat="48.3204" lon="-4.32922">
        <ele>5.4</ele>
        <time>2025-03-27T09:17:18.897Z</time>
      </trkpt>
      <trkpt lat="48.32036" lon="-4.32929">
        <ele>5.6</ele>
        <time>2025-03-27T09:17:26.918Z</time>
      </trkpt>
      <trkpt lat="48.32032" lon="-4.32935">
        <ele>5.6</ele>
        <time>2025-03-27T09:17:34.127Z</time>
      </trkpt>
      <trkpt lat="48.32029" lon="-4.32938">
        <ele>5.7</ele>
        <time>2025-03-27T09:17:38.937Z</time>
      </trkpt>
      <trkpt lat="48.32027" lon="-4.32938">
        <ele>5.9</ele>
        <time>2025-03-27T09:17:42.335Z</time>
      </trkpt>
      <trkpt lat="48.32025" lon="-4.32938">
        <ele>5.9</ele>
        <time>2025-03-27T09:17:44.783Z</time>
      </trkpt>
      <trkpt lat="48.32023" lon="-4.32938">
        <ele>5.8</ele>
        <time>2025-03-27T09:17:46.925Z</time>
      </trkpt>
      <trkpt lat="48.32016" lon="-4.32937">
        <ele>5.8</ele>
        <time>2025-03-27T09:17:55.532Z</time>
      </trkpt>
      <trkpt lat="48.32011" lon="-4.32935">
        <ele>6</ele>
        <time>2025-03-27T09:18:02.686Z</time>
      </trkpt>
      <trkpt lat="48.32006" lon="-4.32933">
        <ele>6.2</ele>
        <time>2025-03-27T09:18:09.840Z</time>
      </trkpt>
      <trkpt lat="48.32002" lon="-4.32931">
        <ele>6.5</ele>
        <time>2025-03-27T09:18:16.328Z</time>
      </trkpt>
      <trkpt lat="48.31998" lon="-4.32928">
        <ele>6.9</ele>
        <time>2025-03-27T09:18:23.651Z</time>
      </trkpt>
      <trkpt lat="48.31994" lon="-4.32924">
        <ele>7.5</ele>
        <time>2025-03-27T09:18:32.565Z</time>
      </trkpt>
      <trkpt lat="48.31991" lon="-4.32921">
        <ele>7.9</ele>
        <time>2025-03-27T09:18:38.927Z</time>
      </trkpt>
      <trkpt lat="48.31984" lon="-4.32919">
        <ele>8</ele>
        <time>2025-03-27T09:18:48.037Z</time>
      </trkpt>
      <trkpt lat="48.31978" lon="-4.32919">
        <ele>7.8</ele>
        <time>2025-03-27T09:18:54.679Z</time>
      </trkpt>
      <trkpt lat="48.31976" lon="-4.32922">
        <ele>7.2</ele>
        <time>2025-03-27T09:18:57.705Z</time>
      </trkpt>
      <trkpt lat="48.31972" lon="-4.32925">
        <ele>6.5</ele>
        <time>2025-03-27T09:19:02.492Z</time>
      </trkpt>
      <trkpt lat="48.31971" lon="-4.32926">
        <ele>6.5</ele>
        <time>2025-03-27T09:19:03.962Z</time>
      </trkpt>
      <trkpt lat="48.31969" lon="-4.32929">
        <ele>6.2</ele>
        <time>2025-03-27T09:19:06.987Z</time>
      </trkpt>
      <trkpt lat="48.31967" lon="-4.3293">
        <ele>6.3</ele>
        <time>2025-03-27T09:19:09.986Z</time>
      </trkpt>
      <trkpt lat="48.31964" lon="-4.32931">
        <ele>6.6</ele>
        <time>2025-03-27T09:19:15.164Z</time>
      </trkpt>
      <trkpt lat="48.31961" lon="-4.32931">
        <ele>7</ele>
        <time>2025-03-27T09:19:20.903Z</time>
      </trkpt>
      <trkpt lat="48.31959" lon="-4.32932">
        <ele>7.2</ele>
        <time>2025-03-27T09:19:24.421Z</time>
      </trkpt>
      <trkpt lat="48.31956" lon="-4.32934">
        <ele>7.4</ele>
        <time>2025-03-27T09:19:29.302Z</time>
      </trkpt>
      <trkpt lat="48.31954" lon="-4.32935">
        <ele>7.5</ele>
        <time>2025-03-27T09:19:32.301Z</time>
      </trkpt>
      <trkpt lat="48.31952" lon="-4.32935">
        <ele>7.8</ele>
        <time>2025-03-27T09:19:36.368Z</time>
      </trkpt>
      <trkpt lat="48.3195" lon="-4.32935">
        <ele>8.2</ele>
        <time>2025-03-27T09:19:41.290Z</time>
      </trkpt>
      <trkpt lat="48.31946" lon="-4.32936">
        <ele>8.7</ele>
        <time>2025-03-27T09:19:48.771Z</time>
      </trkpt>
      <trkpt lat="48.31942" lon="-4.32936">
        <ele>9.5</ele>
        <time>2025-03-27T09:19:58.614Z</time>
      </trkpt>
      <trkpt lat="48.3194" lon="-4.32937">
        <ele>9.8</ele>
        <time>2025-03-27T09:20:02.781Z</time>
      </trkpt>
      <trkpt lat="48.31938" lon="-4.32938">
        <ele>10.2</ele>
        <time>2025-03-27T09:20:07.765Z</time>
      </trkpt>
      <trkpt lat="48.31937" lon="-4.3294">
        <ele>10.4</ele>
        <time>2025-03-27T09:20:10.801Z</time>
      </trkpt>
      <trkpt lat="48.31931" lon="-4.3295">
        <ele>10.7</ele>
        <time>2025-03-27T09:20:22.982Z</time>
      </trkpt>
      <trkpt lat="48.3193" lon="-4.32951">
        <ele>10.8</ele>
        <time>2025-03-27T09:20:24.907Z</time>
      </trkpt>
      <trkpt lat="48.31929" lon="-4.32953">
        <ele>10.6</ele>
        <time>2025-03-27T09:20:26.690Z</time>
      </trkpt>
      <trkpt lat="48.31926" lon="-4.32956">
        <ele>11</ele>
        <time>2025-03-27T09:20:33.052Z</time>
      </trkpt>
      <trkpt lat="48.31923" lon="-4.32959">
        <ele>11.3</ele>
        <time>2025-03-27T09:20:38.830Z</time>
      </trkpt>
      <trkpt lat="48.31919" lon="-4.3296">
        <ele>12.4</ele>
        <time>2025-03-27T09:20:52.137Z</time>
      </trkpt>
      <trkpt lat="48.31917" lon="-4.3296">
        <ele>13.1</ele>
        <time>2025-03-27T09:21:01.241Z</time>
      </trkpt>
      <trkpt lat="48.31914" lon="-4.32958">
        <ele>14.1</ele>
        <time>2025-03-27T09:21:13.621Z</time>
      </trkpt>
      <trkpt lat="48.31912" lon="-4.32958">
        <ele>14.5</ele>
        <time>2025-03-27T09:21:18.542Z</time>
      </trkpt>
      <trkpt lat="48.31906" lon="-4.3296">
        <ele>15.5</ele>
        <time>2025-03-27T09:21:31.648Z</time>
      </trkpt>
      <trkpt lat="48.31898" lon="-4.32962">
        <ele>17.2</ele>
        <time>2025-03-27T09:21:52.374Z</time>
      </trkpt>
      <trkpt lat="48.31896" lon="-4.32963">
        <ele>17.6</ele>
        <time>2025-03-27T09:21:57.358Z</time>
      </trkpt>
      <trkpt lat="48.31891" lon="-4.32967">
        <ele>19</ele>
        <time>2025-03-27T09:22:14.192Z</time>
      </trkpt>
      <trkpt lat="48.31887" lon="-4.32971">
        <ele>20</ele>
        <time>2025-03-27T09:22:26.399Z</time>
      </trkpt>
      <trkpt lat="48.31885" lon="-4.32972">
        <ele>20.1</ele>
        <time>2025-03-27T09:22:29.397Z</time>
      </trkpt>
      <trkpt lat="48.31884" lon="-4.32974">
        <ele>19.6</ele>
        <time>2025-03-27T09:22:31.179Z</time>
      </trkpt>
      <trkpt lat="48.31882" lon="-4.32975">
        <ele>19.5</ele>
        <time>2025-03-27T09:22:33.437Z</time>
      </trkpt>
      <trkpt lat="48.3188" lon="-4.32977">
        <ele>19.3</ele>
        <time>2025-03-27T09:22:36.009Z</time>
      </trkpt>
      <trkpt lat="48.31877" lon="-4.32978">
        <ele>19.5</ele>
        <time>2025-03-27T09:22:40.643Z</time>
      </trkpt>
      <trkpt lat="48.31876" lon="-4.3298">
        <ele>19.3</ele>
        <time>2025-03-27T09:22:42.426Z</time>
      </trkpt>
      <trkpt lat="48.31875" lon="-4.32987">
        <ele>18.6</ele>
        <time>2025-03-27T09:22:47.525Z</time>
      </trkpt>
      <trkpt lat="48.31872" lon="-4.32998">
        <ele>18.9</ele>
        <time>2025-03-27T09:22:58.432Z</time>
      </trkpt>
      <trkpt lat="48.31868" lon="-4.33009">
        <ele>19.5</ele>
        <time>2025-03-27T09:23:10.960Z</time>
      </trkpt>
      <trkpt lat="48.31864" lon="-4.33019">
        <ele>20.3</ele>
        <time>2025-03-27T09:23:24.604Z</time>
      </trkpt>
      <trkpt lat="48.31862" lon="-4.33024">
        <ele>20.9</ele>
        <time>2025-03-27T09:23:32.632Z</time>
        <extensions>
          <visugpx:TrkExtension xmlns:visugpx="https://www.visugpx.com/editgpx/">
            <visugpx:node>7</visugpx:node>
            </visugpx:TrkExtension>
        </extensions>
      </trkpt>
      <trkpt lat="48.31862" lon="-4.33024">
        <ele>20.9</ele>
        <time>2025-03-27T09:23:32.632Z</time>
      </trkpt>
      <trkpt lat="48.3186" lon="-4.3303">
        <ele>20.1</ele>
        <time>2025-03-27T09:23:37.412Z</time>
      </trkpt>
      <trkpt lat="48.31859" lon="-4.33032">
        <ele>19.4</ele>
        <time>2025-03-27T09:23:39.195Z</time>
      </trkpt>
      <trkpt lat="48.31858" lon="-4.33033">
        <ele>19.2</ele>
        <time>2025-03-27T09:23:40.481Z</time>
      </trkpt>
      <trkpt lat="48.31855" lon="-4.33035">
        <ele>19.1</ele>
        <time>2025-03-27T09:23:44.144Z</time>
      </trkpt>
      <trkpt lat="48.31854" lon="-4.33036">
        <ele>19</ele>
        <time>2025-03-27T09:23:45.430Z</time>
      </trkpt>
      <trkpt lat="48.31853" lon="-4.33038">
        <ele>18.5</ele>
        <time>2025-03-27T09:23:47.213Z</time>
      </trkpt>
      <trkpt lat="48.31851" lon="-4.33042">
        <ele>17.7</ele>
        <time>2025-03-27T09:23:50.777Z</time>
      </trkpt>
      <trkpt lat="48.31849" lon="-4.33044">
        <ele>17.8</ele>
        <time>2025-03-27T09:23:54.130Z</time>
      </trkpt>
      <trkpt lat="48.31846" lon="-4.33049">
        <ele>17.6</ele>
        <time>2025-03-27T09:23:58.927Z</time>
      </trkpt>
      <trkpt lat="48.31844" lon="-4.33053">
        <ele>17.5</ele>
        <time>2025-03-27T09:24:02.647Z</time>
      </trkpt>
      <trkpt lat="48.3184" lon="-4.33059">
        <ele>19</ele>
        <time>2025-03-27T09:24:20.750Z</time>
      </trkpt>
      <trkpt lat="48.31836" lon="-4.33062">
        <ele>20.7</ele>
        <time>2025-03-27T09:24:43.723Z</time>
      </trkpt>
      <trkpt lat="48.31835" lon="-4.33064">
        <ele>20.8</ele>
        <time>2025-03-27T09:24:46.191Z</time>
      </trkpt>
      <trkpt lat="48.31834" lon="-4.33066">
        <ele>20.9</ele>
        <time>2025-03-27T09:24:48.659Z</time>
      </trkpt>
      <trkpt lat="48.31832" lon="-4.33072">
        <ele>20.2</ele>
        <time>2025-03-27T09:24:53.439Z</time>
      </trkpt>
      <trkpt lat="48.31831" lon="-4.33075">
        <ele>19.9</ele>
        <time>2025-03-27T09:24:55.829Z</time>
      </trkpt>
      <trkpt lat="48.3183" lon="-4.33082">
        <ele>18.9</ele>
        <time>2025-03-27T09:25:00.928Z</time>
      </trkpt>
      <trkpt lat="48.31827" lon="-4.33088">
        <ele>17.8</ele>
        <time>2025-03-27T09:25:06.275Z</time>
      </trkpt>
      <trkpt lat="48.31826" lon="-4.33091">
        <ele>17.1</ele>
        <time>2025-03-27T09:25:08.665Z</time>
      </trkpt>
      <trkpt lat="48.31821" lon="-4.33097">
        <ele>17</ele>
        <time>2025-03-27T09:25:16.131Z</time>
      </trkpt>
      <trkpt lat="48.31818" lon="-4.33099">
        <ele>17.6</ele>
        <time>2025-03-27T09:25:23.685Z</time>
      </trkpt>
      <trkpt lat="48.31815" lon="-4.33099">
        <ele>18.7</ele>
        <time>2025-03-27T09:25:38.294Z</time>
      </trkpt>
      <trkpt lat="48.31812" lon="-4.33101">
        <ele>19.5</ele>
        <time>2025-03-27T09:25:47.913Z</time>
      </trkpt>
      <trkpt lat="48.31809" lon="-4.33104">
        <ele>20.3</ele>
        <time>2025-03-27T09:25:57.587Z</time>
      </trkpt>
      <trkpt lat="48.31805" lon="-4.33108">
        <ele>21.5</ele>
        <time>2025-03-27T09:26:12.018Z</time>
      </trkpt>
      <trkpt lat="48.31803" lon="-4.33111">
        <ele>21.6</ele>
        <time>2025-03-27T09:26:15.884Z</time>
      </trkpt>
      <trkpt lat="48.31803" lon="-4.33113">
        <ele>21.1</ele>
        <time>2025-03-27T09:26:17.308Z</time>
      </trkpt>
      <trkpt lat="48.31802" lon="-4.33121">
        <ele>19.3</ele>
        <time>2025-03-27T09:26:23.106Z</time>
      </trkpt>
      <trkpt lat="48.318" lon="-4.33125">
        <ele>18.5</ele>
        <time>2025-03-27T09:26:26.670Z</time>
      </trkpt>
      <trkpt lat="48.31798" lon="-4.3313">
        <ele>17.3</ele>
        <time>2025-03-27T09:26:30.826Z</time>
      </trkpt>
      <trkpt lat="48.31796" lon="-4.33132">
        <ele>16.7</ele>
        <time>2025-03-27T09:26:33.398Z</time>
      </trkpt>
      <trkpt lat="48.31795" lon="-4.33133">
        <ele>16.5</ele>
        <time>2025-03-27T09:26:34.685Z</time>
      </trkpt>
      <trkpt lat="48.31793" lon="-4.33134">
        <ele>16.2</ele>
        <time>2025-03-27T09:26:36.942Z</time>
      </trkpt>
      <trkpt lat="48.31788" lon="-4.33135">
        <ele>15.8</ele>
        <time>2025-03-27T09:26:42.344Z</time>
      </trkpt>
      <trkpt lat="48.31783" lon="-4.33135">
        <ele>15.8</ele>
        <time>2025-03-27T09:26:48.464Z</time>
      </trkpt>
      <trkpt lat="48.31782" lon="-4.33135">
        <ele>15.8</ele>
        <time>2025-03-27T09:26:49.688Z</time>
      </trkpt>
      <trkpt lat="48.31781" lon="-4.33135">
        <ele>15.8</ele>
        <time>2025-03-27T09:26:50.912Z</time>
      </trkpt>
      <trkpt lat="48.3178" lon="-4.33135">
        <ele>15.8</ele>
        <time>2025-03-27T09:26:52.136Z</time>
      </trkpt>
      <trkpt lat="48.31779" lon="-4.33135">
        <ele>15.8</ele>
        <time>2025-03-27T09:26:53.360Z</time>
      </trkpt>
      <trkpt lat="48.31778" lon="-4.33136">
        <ele>15.4</ele>
        <time>2025-03-27T09:26:54.647Z</time>
      </trkpt>
      <trkpt lat="48.31775" lon="-4.33139">
        <ele>14.9</ele>
        <time>2025-03-27T09:26:58.505Z</time>
      </trkpt>
      <trkpt lat="48.31773" lon="-4.3314">
        <ele>15.1</ele>
        <time>2025-03-27T09:27:02.023Z</time>
      </trkpt>
      <trkpt lat="48.31767" lon="-4.33146">
        <ele>14.7</ele>
        <time>2025-03-27T09:27:09.549Z</time>
      </trkpt>
      <trkpt lat="48.31761" lon="-4.33151">
        <ele>14.1</ele>
        <time>2025-03-27T09:27:17.075Z</time>
      </trkpt>
      <trkpt lat="48.31758" lon="-4.33154">
        <ele>13.6</ele>
        <time>2025-03-27T09:27:20.934Z</time>
      </trkpt>
      <trkpt lat="48.31756" lon="-4.33156">
        <ele>13.3</ele>
        <time>2025-03-27T09:27:23.506Z</time>
      </trkpt>
      <trkpt lat="48.31755" lon="-4.33158">
        <ele>12.7</ele>
        <time>2025-03-27T09:27:25.289Z</time>
      </trkpt>
      <trkpt lat="48.31751" lon="-4.33158">
        <ele>13.8</ele>
        <time>2025-03-27T09:27:38.620Z</time>
      </trkpt>
      <trkpt lat="48.31746" lon="-4.33161">
        <ele>14.7</ele>
        <time>2025-03-27T09:27:50.295Z</time>
      </trkpt>
      <trkpt lat="48.31744" lon="-4.33162">
        <ele>15.2</ele>
        <time>2025-03-27T09:27:56.311Z</time>
      </trkpt>
      <trkpt lat="48.31742" lon="-4.33162">
        <ele>16.3</ele>
        <time>2025-03-27T09:28:09.163Z</time>
      </trkpt>
      <trkpt lat="48.31736" lon="-4.33163">
        <ele>18.9</ele>
        <time>2025-03-27T09:28:46.371Z</time>
      </trkpt>
      <trkpt lat="48.3173" lon="-4.33169">
        <ele>20.5</ele>
        <time>2025-03-27T09:29:05.719Z</time>
      </trkpt>
      <trkpt lat="48.31726" lon="-4.33181">
        <ele>21.6</ele>
        <time>2025-03-27T09:29:22.184Z</time>
      </trkpt>
      <trkpt lat="48.31726" lon="-4.3319">
        <ele>20.7</ele>
        <time>2025-03-27T09:29:28.594Z</time>
      </trkpt>
      <trkpt lat="48.31726" lon="-4.33199">
        <ele>20</ele>
        <time>2025-03-27T09:29:35.004Z</time>
      </trkpt>
      <trkpt lat="48.31726" lon="-4.33205">
        <ele>19.5</ele>
        <time>2025-03-27T09:29:39.278Z</time>
      </trkpt>
      <trkpt lat="48.31726" lon="-4.33216">
        <ele>18.7</ele>
        <time>2025-03-27T09:29:47.112Z</time>
      </trkpt>
      <trkpt lat="48.31725" lon="-4.33221">
        <ele>19.1</ele>
        <time>2025-03-27T09:29:53.336Z</time>
      </trkpt>
      <trkpt lat="48.31724" lon="-4.33228">
        <ele>18.5</ele>
        <time>2025-03-27T09:29:58.435Z</time>
      </trkpt>
      <trkpt lat="48.31723" lon="-4.33235">
        <ele>17.5</ele>
        <time>2025-03-27T09:30:03.535Z</time>
      </trkpt>
      <trkpt lat="48.3172" lon="-4.33241">
        <ele>16.6</ele>
        <time>2025-03-27T09:30:08.601Z</time>
      </trkpt>
      <trkpt lat="48.31717" lon="-4.33246">
        <ele>15.5</ele>
        <time>2025-03-27T09:30:13.668Z</time>
      </trkpt>
      <trkpt lat="48.31712" lon="-4.33247">
        <ele>15.8</ele>
        <time>2025-03-27T09:30:21.725Z</time>
      </trkpt>
      <trkpt lat="48.31706" lon="-4.33248">
        <ele>16.2</ele>
        <time>2025-03-27T09:30:30.282Z</time>
      </trkpt>
      <trkpt lat="48.31699" lon="-4.3325">
        <ele>16.5</ele>
        <time>2025-03-27T09:30:40.245Z</time>
      </trkpt>
      <trkpt lat="48.31692" lon="-4.33257">
        <ele>14.1</ele>
        <time>2025-03-27T09:30:49.248Z</time>
      </trkpt>
      <trkpt lat="48.31691" lon="-4.33258">
        <ele>13.9</ele>
        <time>2025-03-27T09:30:50.535Z</time>
      </trkpt>
      <trkpt lat="48.31688" lon="-4.33265">
        <ele>12.1</ele>
        <time>2025-03-27T09:30:56.170Z</time>
      </trkpt>
      <trkpt lat="48.31685" lon="-4.33271">
        <ele>10.9</ele>
        <time>2025-03-27T09:31:01.805Z</time>
      </trkpt>
      <trkpt lat="48.31683" lon="-4.33277">
        <ele>9.8</ele>
        <time>2025-03-27T09:31:06.585Z</time>
      </trkpt>
      <trkpt lat="48.31681" lon="-4.33287">
        <ele>9.9</ele>
        <time>2025-03-27T09:31:15.474Z</time>
      </trkpt>
      <trkpt lat="48.3168" lon="-4.33295">
        <ele>9.8</ele>
        <time>2025-03-27T09:31:21.738Z</time>
      </trkpt>
      <trkpt lat="48.31679" lon="-4.33303">
        <ele>9.6</ele>
        <time>2025-03-27T09:31:27.667Z</time>
      </trkpt>
      <trkpt lat="48.31677" lon="-4.3331">
        <ele>10.7</ele>
        <time>2025-03-27T09:31:41.006Z</time>
      </trkpt>
      <trkpt lat="48.31675" lon="-4.33317">
        <ele>11.7</ele>
        <time>2025-03-27T09:31:53.346Z</time>
      </trkpt>
      <trkpt lat="48.31673" lon="-4.33324">
        <ele>12.3</ele>
        <time>2025-03-27T09:32:02.761Z</time>
      </trkpt>
      <trkpt lat="48.3167" lon="-4.33331">
        <ele>12.2</ele>
        <time>2025-03-27T09:32:08.867Z</time>
      </trkpt>
      <trkpt lat="48.31669" lon="-4.33339">
        <ele>11.3</ele>
        <time>2025-03-27T09:32:14.445Z</time>
      </trkpt>
      <trkpt lat="48.31667" lon="-4.33346">
        <ele>10.2</ele>
        <time>2025-03-27T09:32:20.024Z</time>
      </trkpt>
      <trkpt lat="48.31664" lon="-4.33358">
        <ele>8.8</ele>
        <time>2025-03-27T09:32:29.155Z</time>
      </trkpt>
      <trkpt lat="48.3166" lon="-4.33368">
        <ele>7.7</ele>
        <time>2025-03-27T09:32:37.466Z</time>
      </trkpt>
      <trkpt lat="48.31656" lon="-4.33372">
        <ele>8</ele>
        <time>2025-03-27T09:32:44.959Z</time>
      </trkpt>
      <trkpt lat="48.31651" lon="-4.33375">
        <ele>8.4</ele>
        <time>2025-03-27T09:32:52.965Z</time>
      </trkpt>
      <trkpt lat="48.31647" lon="-4.33379">
        <ele>8.8</ele>
        <time>2025-03-27T09:33:00.467Z</time>
      </trkpt>
      <trkpt lat="48.31643" lon="-4.33382">
        <ele>9.5</ele>
        <time>2025-03-27T09:33:09.923Z</time>
      </trkpt>
      <trkpt lat="48.3164" lon="-4.33389">
        <ele>9.9</ele>
        <time>2025-03-27T09:33:18.506Z</time>
      </trkpt>
      <trkpt lat="48.31636" lon="-4.33395">
        <ele>9.2</ele>
        <time>2025-03-27T09:33:24.463Z</time>
      </trkpt>
      <trkpt lat="48.31634" lon="-4.33401">
        <ele>8.6</ele>
        <time>2025-03-27T09:33:29.243Z</time>
      </trkpt>
      <trkpt lat="48.31633" lon="-4.33411">
        <ele>7.5</ele>
        <time>2025-03-27T09:33:36.544Z</time>
      </trkpt>
      <trkpt lat="48.31631" lon="-4.33421">
        <ele>6.8</ele>
        <time>2025-03-27T09:33:43.846Z</time>
      </trkpt>
      <trkpt lat="48.31629" lon="-4.33429">
        <ele>6.4</ele>
        <time>2025-03-27T09:33:49.601Z</time>
      </trkpt>
      <trkpt lat="48.31627" lon="-4.33436">
        <ele>6.2</ele>
        <time>2025-03-27T09:33:55.482Z</time>
      </trkpt>
      <trkpt lat="48.31626" lon="-4.33442">
        <ele>6</ele>
        <time>2025-03-27T09:33:59.888Z</time>
      </trkpt>
      <trkpt lat="48.31624" lon="-4.33451">
        <ele>6</ele>
        <time>2025-03-27T09:34:07.227Z</time>
      </trkpt>
      <trkpt lat="48.31622" lon="-4.33459">
        <ele>6.1</ele>
        <time>2025-03-27T09:34:14.957Z</time>
      </trkpt>
      <trkpt lat="48.31621" lon="-4.33468">
        <ele>6.1</ele>
        <time>2025-03-27T09:34:22.510Z</time>
      </trkpt>
      <trkpt lat="48.31619" lon="-4.33477">
        <ele>6.2</ele>
        <time>2025-03-27T09:34:30.453Z</time>
      </trkpt>
      <trkpt lat="48.31619" lon="-4.33485">
        <ele>6.1</ele>
        <time>2025-03-27T09:34:36.603Z</time>
        <extensions>
          <visugpx:TrkExtension xmlns:visugpx="https://www.visugpx.com/editgpx/">
            <visugpx:node>8</visugpx:node>
            </visugpx:TrkExtension>
        </extensions>
      </trkpt>
      <trkpt lat="48.3162" lon="-4.3349">
        <ele>5.8</ele>
        <time>2025-03-27T09:34:40.321Z</time>
      </trkpt>
      <trkpt lat="48.31621" lon="-4.33492">
        <ele>5.7</ele>
        <time>2025-03-27T09:34:42.104Z</time>
      </trkpt>
      <trkpt lat="48.31616" lon="-4.33494">
        <ele>6.4</ele>
        <time>2025-03-27T09:34:52.073Z</time>
      </trkpt>
      <trkpt lat="48.31611" lon="-4.33496">
        <ele>7.1</ele>
        <time>2025-03-27T09:35:02.041Z</time>
      </trkpt>
      <trkpt lat="48.31606" lon="-4.335">
        <ele>7.2</ele>
        <time>2025-03-27T09:35:09.365Z</time>
      </trkpt>
      <trkpt lat="48.31601" lon="-4.33503">
        <ele>7.4</ele>
        <time>2025-03-27T09:35:17.212Z</time>
      </trkpt>
      <trkpt lat="48.31595" lon="-4.33505">
        <ele>7.7</ele>
        <time>2025-03-27T09:35:25.516Z</time>
      </trkpt>
      <trkpt lat="48.31594" lon="-4.33513">
        <ele>7.8</ele>
        <time>2025-03-27T09:35:32.136Z</time>
      </trkpt>
      <trkpt lat="48.31593" lon="-4.3352">
        <ele>7.9</ele>
        <time>2025-03-27T09:35:38.756Z</time>
      </trkpt>
      <trkpt lat="48.31593" lon="-4.33521">
        <ele>7.9</ele>
        <time>2025-03-27T09:35:39.570Z</time>
      </trkpt>
      <trkpt lat="48.31592" lon="-4.33526">
        <ele>8</ele>
        <time>2025-03-27T09:35:44.221Z</time>
      </trkpt>
      <trkpt lat="48.31592" lon="-4.33528">
        <ele>8</ele>
        <time>2025-03-27T09:35:45.849Z</time>
      </trkpt>
      <trkpt lat="48.31591" lon="-4.3353">
        <ele>7.7</ele>
        <time>2025-03-27T09:35:47.632Z</time>
      </trkpt>
      <trkpt lat="48.3159" lon="-4.33532">
        <ele>7.5</ele>
        <time>2025-03-27T09:35:49.414Z</time>
      </trkpt>
      <trkpt lat="48.31586" lon="-4.33534">
        <ele>7.3</ele>
        <time>2025-03-27T09:35:53.929Z</time>
      </trkpt>
      <trkpt lat="48.31584" lon="-4.33536">
        <ele>7.1</ele>
        <time>2025-03-27T09:35:56.501Z</time>
      </trkpt>
      <trkpt lat="48.31581" lon="-4.33541">
        <ele>6.9</ele>
        <time>2025-03-27T09:36:01.298Z</time>
      </trkpt>
      <trkpt lat="48.31579" lon="-4.33543">
        <ele>7</ele>
        <time>2025-03-27T09:36:04.651Z</time>
      </trkpt>
      <trkpt lat="48.31577" lon="-4.33545">
        <ele>7.2</ele>
        <time>2025-03-27T09:36:08.503Z</time>
      </trkpt>
      <trkpt lat="48.31577" lon="-4.33546">
        <ele>7.1</ele>
        <time>2025-03-27T09:36:09.215Z</time>
        <extensions>
          <visugpx:TrkExtension xmlns:visugpx="https://www.visugpx.com/editgpx/">
            <visugpx:node>9</visugpx:node>
            </visugpx:TrkExtension>
        </extensions>
      </trkpt>
      <trkpt lat="48.31576" lon="-4.33549">
        <ele>7</ele>
        <time>2025-03-27T09:36:11.605Z</time>
      </trkpt>
      <trkpt lat="48.31574" lon="-4.33555">
        <ele>7.2</ele>
        <time>2025-03-27T09:36:18.197Z</time>
      </trkpt>
      <trkpt lat="48.31571" lon="-4.33561">
        <ele>7.3</ele>
        <time>2025-03-27T09:36:24.355Z</time>
      </trkpt>
      <trkpt lat="48.31568" lon="-4.33568">
        <ele>7.8</ele>
        <time>2025-03-27T09:36:33.453Z</time>
      </trkpt>
      <trkpt lat="48.31567" lon="-4.33575">
        <ele>7.8</ele>
        <time>2025-03-27T09:36:39.281Z</time>
      </trkpt>
      <trkpt lat="48.31566" lon="-4.33577">
        <ele>8.1</ele>
        <time>2025-03-27T09:36:43.074Z</time>
      </trkpt>
      <trkpt lat="48.31565" lon="-4.3358">
        <ele>8.3</ele>
        <time>2025-03-27T09:36:46.732Z</time>
      </trkpt>
      <trkpt lat="48.31565" lon="-4.33589">
        <ele>8.6</ele>
        <time>2025-03-27T09:36:55.322Z</time>
      </trkpt>
      <trkpt lat="48.31566" lon="-4.33593">
        <ele>8.6</ele>
        <time>2025-03-27T09:36:58.801Z</time>
      </trkpt>
      <trkpt lat="48.31567" lon="-4.336">
        <ele>9</ele>
        <time>2025-03-27T09:37:06.456Z</time>
      </trkpt>
      <trkpt lat="48.31567" lon="-4.33604">
        <ele>9.4</ele>
        <time>2025-03-27T09:37:11.873Z</time>
      </trkpt>
      <trkpt lat="48.31566" lon="-4.33607">
        <ele>9.7</ele>
        <time>2025-03-27T09:37:16.160Z</time>
      </trkpt>
      <trkpt lat="48.31565" lon="-4.3361">
        <ele>9.9</ele>
        <time>2025-03-27T09:37:19.817Z</time>
      </trkpt>
      <trkpt lat="48.31564" lon="-4.33611">
        <ele>10</ele>
        <time>2025-03-27T09:37:21.743Z</time>
      </trkpt>
      <trkpt lat="48.31562" lon="-4.33612">
        <ele>9.7</ele>
        <time>2025-03-27T09:37:24.000Z</time>
      </trkpt>
      <trkpt lat="48.31555" lon="-4.33613">
        <ele>9.5</ele>
        <time>2025-03-27T09:37:31.898Z</time>
      </trkpt>
      <trkpt lat="48.31553" lon="-4.33614">
        <ele>9.6</ele>
        <time>2025-03-27T09:37:34.896Z</time>
      </trkpt>
      <trkpt lat="48.31548" lon="-4.33617">
        <ele>9.9</ele>
        <time>2025-03-27T09:37:42.767Z</time>
      </trkpt>
      <trkpt lat="48.31546" lon="-4.33619">
        <ele>9.9</ele>
        <time>2025-03-27T09:37:45.707Z</time>
      </trkpt>
      <trkpt lat="48.31544" lon="-4.33622">
        <ele>9.9</ele>
        <time>2025-03-27T09:37:49.165Z</time>
      </trkpt>
      <trkpt lat="48.3154" lon="-4.33628">
        <ele>10.1</ele>
        <time>2025-03-27T09:37:56.895Z</time>
      </trkpt>
      <trkpt lat="48.31536" lon="-4.33635">
        <ele>10.6</ele>
        <time>2025-03-27T09:38:06.678Z</time>
      </trkpt>
      <trkpt lat="48.31533" lon="-4.33646">
        <ele>9.4</ele>
        <time>2025-03-27T09:38:15.146Z</time>
      </trkpt>
      <trkpt lat="48.31531" lon="-4.33653">
        <ele>7.7</ele>
        <time>2025-03-27T09:38:20.572Z</time>
      </trkpt>
      <trkpt lat="48.31525" lon="-4.33647">
        <ele>11</ele>
        <time>2025-03-27T09:39:07.436Z</time>
      </trkpt>
      <trkpt lat="48.31518" lon="-4.3364">
        <ele>13.5</ele>
        <time>2025-03-27T09:39:38.856Z</time>
      </trkpt>
      <trkpt lat="48.3151" lon="-4.33637">
        <ele>13.9</ele>
        <time>2025-03-27T09:39:50.628Z</time>
      </trkpt>
      <trkpt lat="48.31502" lon="-4.33634">
        <ele>13.5</ele>
        <time>2025-03-27T09:39:59.459Z</time>
      </trkpt>
      <trkpt lat="48.31498" lon="-4.33634">
        <ele>12.7</ele>
        <time>2025-03-27T09:40:03.743Z</time>
      </trkpt>
      <trkpt lat="48.31491" lon="-4.33636">
        <ele>10.2</ele>
        <time>2025-03-27T09:40:11.374Z</time>
      </trkpt>
      <trkpt lat="48.31484" lon="-4.33638">
        <ele>7.6</ele>
        <time>2025-03-27T09:40:19.006Z</time>
      </trkpt>
      <trkpt lat="48.3148" lon="-4.3364">
        <ele>5.9</ele>
        <time>2025-03-27T09:40:23.520Z</time>
      </trkpt>
      <trkpt lat="48.3148" lon="-4.33648">
        <ele>4.7</ele>
        <time>2025-03-27T09:40:29.219Z</time>
      </trkpt>
      <trkpt lat="48.3148" lon="-4.33639">
        <ele>6.1</ele>
        <time>2025-03-27T09:40:46.074Z</time>
      </trkpt>
      <trkpt lat="48.31479" lon="-4.33636">
        <ele>5.5</ele>
        <time>2025-03-27T09:40:48.464Z</time>
      </trkpt>
      <trkpt lat="48.31477" lon="-4.33633">
        <ele>4.6</ele>
        <time>2025-03-27T09:40:51.490Z</time>
      </trkpt>
      <trkpt lat="48.31478" lon="-4.33623">
        <ele>4.5</ele>
        <time>2025-03-27T09:40:59.357Z</time>
        <extensions>
          <visugpx:TrkExtension xmlns:visugpx="https://www.visugpx.com/editgpx/">
            <visugpx:node>10</visugpx:node>
            </visugpx:TrkExtension>
        </extensions>
      </trkpt>
      <trkpt lat="48.31479" lon="-4.33616">
        <ele>4.4</ele>
        <time>2025-03-27T09:41:05.222Z</time>
      </trkpt>
      <trkpt lat="48.3148" lon="-4.33608">
        <ele>4.3</ele>
        <time>2025-03-27T09:41:11.088Z</time>
      </trkpt>
      <trkpt lat="48.31483" lon="-4.33599">
        <ele>4.6</ele>
        <time>2025-03-27T09:41:20.280Z</time>
      </trkpt>
      <trkpt lat="48.31485" lon="-4.3359">
        <ele>4.7</ele>
        <time>2025-03-27T09:41:28.610Z</time>
      </trkpt>
      <trkpt lat="48.31485" lon="-4.33585">
        <ele>4.3</ele>
        <time>2025-03-27T09:41:32.171Z</time>
      </trkpt>
      <trkpt lat="48.31487" lon="-4.33578">
        <ele>4.4</ele>
        <time>2025-03-27T09:41:38.939Z</time>
      </trkpt>
      <trkpt lat="48.31488" lon="-4.3357">
        <ele>4.4</ele>
        <time>2025-03-27T09:41:45.315Z</time>
      </trkpt>
      <trkpt lat="48.31491" lon="-4.33561">
        <ele>4.5</ele>
        <time>2025-03-27T09:41:53.644Z</time>
      </trkpt>
      <trkpt lat="48.31493" lon="-4.33552">
        <ele>4.8</ele>
        <time>2025-03-27T09:42:02.837Z</time>
      </trkpt>
      <trkpt lat="48.31496" lon="-4.33545">
        <ele>5.1</ele>
        <time>2025-03-27T09:42:10.589Z</time>
      </trkpt>
      <trkpt lat="48.31498" lon="-4.33538">
        <ele>5.2</ele>
        <time>2025-03-27T09:42:17.449Z</time>
      </trkpt>
      <trkpt lat="48.31501" lon="-4.33531">
        <ele>5.2</ele>
        <time>2025-03-27T09:42:24.228Z</time>
      </trkpt>
      <trkpt lat="48.31504" lon="-4.33525">
        <ele>5.1</ele>
        <time>2025-03-27T09:42:29.979Z</time>
      </trkpt>
      <trkpt lat="48.31506" lon="-4.33518">
        <ele>4.7</ele>
        <time>2025-03-27T09:42:35.328Z</time>
      </trkpt>
      <trkpt lat="48.31508" lon="-4.33515">
        <ele>4.7</ele>
        <time>2025-03-27T09:42:38.786Z</time>
      </trkpt>
      <trkpt lat="48.31511" lon="-4.33509">
        <ele>4.6</ele>
        <time>2025-03-27T09:42:44.537Z</time>
      </trkpt>
      <trkpt lat="48.31513" lon="-4.33502">
        <ele>4.5</ele>
        <time>2025-03-27T09:42:50.288Z</time>
      </trkpt>
      <trkpt lat="48.31516" lon="-4.33496">
        <ele>4.8</ele>
        <time>2025-03-27T09:42:57.694Z</time>
      </trkpt>
      <trkpt lat="48.31518" lon="-4.33489">
        <ele>5.1</ele>
        <time>2025-03-27T09:43:05.101Z</time>
      </trkpt>
      <trkpt lat="48.31519" lon="-4.3349">
        <ele>5.3</ele>
        <time>2025-03-27T09:43:07.699Z</time>
      </trkpt>
      <trkpt lat="48.31514" lon="-4.33483">
        <ele>4.5</ele>
        <time>2025-03-27T09:43:15.016Z</time>
      </trkpt>
      <trkpt lat="48.31509" lon="-4.33476">
        <ele>3.9</ele>
        <time>2025-03-27T09:43:22.333Z</time>
      </trkpt>
      <trkpt lat="48.31509" lon="-4.33469">
        <ele>4</ele>
        <time>2025-03-27T09:43:28.426Z</time>
      </trkpt>
      <trkpt lat="48.31506" lon="-4.3346">
        <ele>3.9</ele>
        <time>2025-03-27T09:43:36.621Z</time>
      </trkpt>
      <trkpt lat="48.31503" lon="-4.3345">
        <ele>4</ele>
        <time>2025-03-27T09:43:45.571Z</time>
      </trkpt>
      <trkpt lat="48.31496" lon="-4.33446">
        <ele>3.8</ele>
        <time>2025-03-27T09:43:54.025Z</time>
      </trkpt>
      <trkpt lat="48.31489" lon="-4.33442">
        <ele>3.6</ele>
        <time>2025-03-27T09:44:02.479Z</time>
      </trkpt>
      <trkpt lat="48.31485" lon="-4.33438">
        <ele>3.3</ele>
        <time>2025-03-27T09:44:08.077Z</time>
      </trkpt>
      <trkpt lat="48.3148" lon="-4.33434">
        <ele>3.2</ele>
        <time>2025-03-27T09:44:14.114Z</time>
      </trkpt>
      <trkpt lat="48.31472" lon="-4.33432">
        <ele>3</ele>
        <time>2025-03-27T09:44:23.326Z</time>
      </trkpt>
      <trkpt lat="48.31468" lon="-4.33428">
        <ele>3</ele>
        <time>2025-03-27T09:44:29.441Z</time>
      </trkpt>
      <trkpt lat="48.31464" lon="-4.33423">
        <ele>3.2</ele>
        <time>2025-03-27T09:44:36.379Z</time>
      </trkpt>
      <trkpt lat="48.31459" lon="-4.33421">
        <ele>3.4</ele>
        <time>2025-03-27T09:44:44.226Z</time>
      </trkpt>
      <trkpt lat="48.31453" lon="-4.33418">
        <ele>3.6</ele>
        <time>2025-03-27T09:44:52.073Z</time>
      </trkpt>
      <trkpt lat="48.31448" lon="-4.33416">
        <ele>3.8</ele>
        <time>2025-03-27T09:44:59.227Z</time>
      </trkpt>
      <trkpt lat="48.31443" lon="-4.33414">
        <ele>3.8</ele>
        <time>2025-03-27T09:45:05.560Z</time>
      </trkpt>
      <trkpt lat="48.31436" lon="-4.33412">
        <ele>3.7</ele>
        <time>2025-03-27T09:45:13.916Z</time>
      </trkpt>
      <trkpt lat="48.31429" lon="-4.3341">
        <ele>3.7</ele>
        <time>2025-03-27T09:45:22.637Z</time>
      </trkpt>
      <trkpt lat="48.31423" lon="-4.33409">
        <ele>3.7</ele>
        <time>2025-03-27T09:45:30.026Z</time>
      </trkpt>
      <trkpt lat="48.31419" lon="-4.3341">
        <ele>3.7</ele>
        <time>2025-03-27T09:45:35.594Z</time>
      </trkpt>
      <trkpt lat="48.31414" lon="-4.33411">
        <ele>4.1</ele>
        <time>2025-03-27T09:45:43.007Z</time>
      </trkpt>
      <trkpt lat="48.31409" lon="-4.33412">
        <ele>4.8</ele>
        <time>2025-03-27T09:45:52.850Z</time>
      </trkpt>
      <trkpt lat="48.31404" lon="-4.33413">
        <ele>5.4</ele>
        <time>2025-03-27T09:46:02.012Z</time>
      </trkpt>
      <trkpt lat="48.31401" lon="-4.33419">
        <ele>5.4</ele>
        <time>2025-03-27T09:46:08.509Z</time>
      </trkpt>
      <trkpt lat="48.31397" lon="-4.33425">
        <ele>4.8</ele>
        <time>2025-03-27T09:46:14.194Z</time>
      </trkpt>
      <trkpt lat="48.31389" lon="-4.33427">
        <ele>5.2</ele>
        <time>2025-03-27T09:46:26.397Z</time>
      </trkpt>
      <trkpt lat="48.3138" lon="-4.33429">
        <ele>5.8</ele>
        <time>2025-03-27T09:46:39.576Z</time>
      </trkpt>
      <trkpt lat="48.31372" lon="-4.33435">
        <ele>6.1</ele>
        <time>2025-03-27T09:46:51.736Z</time>
      </trkpt>
      <trkpt lat="48.31376" lon="-4.3343">
        <ele>6.2</ele>
        <time>2025-03-27T09:46:58.496Z</time>
      </trkpt>
      <trkpt lat="48.3138" lon="-4.33425">
        <ele>6.4</ele>
        <time>2025-03-27T09:47:05.683Z</time>
      </trkpt>
      <trkpt lat="48.31388" lon="-4.33424">
        <ele>5.8</ele>
        <time>2025-03-27T09:47:13.748Z</time>
      </trkpt>
      <trkpt lat="48.31395" lon="-4.33423">
        <ele>5.3</ele>
        <time>2025-03-27T09:47:21.812Z</time>
      </trkpt>
      <trkpt lat="48.31401" lon="-4.33418">
        <ele>5.6</ele>
        <time>2025-03-27T09:47:31.148Z</time>
      </trkpt>
      <trkpt lat="48.31406" lon="-4.33412">
        <ele>5.2</ele>
        <time>2025-03-27T09:47:38.222Z</time>
      </trkpt>
      <trkpt lat="48.31411" lon="-4.33411">
        <ele>4.5</ele>
        <time>2025-03-27T09:47:43.604Z</time>
      </trkpt>
      <trkpt lat="48.31416" lon="-4.33411">
        <ele>3.9</ele>
        <time>2025-03-27T09:47:48.985Z</time>
      </trkpt>
      <trkpt lat="48.31421" lon="-4.3341">
        <ele>3.7</ele>
        <time>2025-03-27T09:47:54.443Z</time>
      </trkpt>
      <trkpt lat="48.31426" lon="-4.33409">
        <ele>3.6</ele>
        <time>2025-03-27T09:48:00.232Z</time>
      </trkpt>
      <trkpt lat="48.31432" lon="-4.33411">
        <ele>3.7</ele>
        <time>2025-03-27T09:48:08.068Z</time>
      </trkpt>
      <trkpt lat="48.31438" lon="-4.33412">
        <ele>3.7</ele>
        <time>2025-03-27T09:48:15.513Z</time>
      </trkpt>
      <trkpt lat="48.31445" lon="-4.33415">
        <ele>3.8</ele>
        <time>2025-03-27T09:48:24.114Z</time>
      </trkpt>
      <trkpt lat="48.31451" lon="-4.33417">
        <ele>3.7</ele>
        <time>2025-03-27T09:48:31.962Z</time>
      </trkpt>
      <trkpt lat="48.31459" lon="-4.33421">
        <ele>3.3</ele>
        <time>2025-03-27T09:48:40.485Z</time>
      </trkpt>
      <trkpt lat="48.31466" lon="-4.33425">
        <ele>3.1</ele>
        <time>2025-03-27T09:48:49.511Z</time>
      </trkpt>
      <trkpt lat="48.31474" lon="-4.3343">
        <ele>3</ele>
        <time>2025-03-27T09:48:59.270Z</time>
      </trkpt>
      <trkpt lat="48.31481" lon="-4.33436">
        <ele>3.2</ele>
        <time>2025-03-27T09:49:10.191Z</time>
      </trkpt>
      <trkpt lat="48.31489" lon="-4.33441">
        <ele>3.5</ele>
        <time>2025-03-27T09:49:21.542Z</time>
      </trkpt>
      <trkpt lat="48.31496" lon="-4.33446">
        <ele>3.8</ele>
        <time>2025-03-27T09:49:32.893Z</time>
      </trkpt>
      <trkpt lat="48.31501" lon="-4.33445">
        <ele>4</ele>
        <time>2025-03-27T09:49:39.365Z</time>
      </trkpt>
      <trkpt lat="48.31505" lon="-4.33443">
        <ele>4.1</ele>
        <time>2025-03-27T09:49:45.402Z</time>
      </trkpt>
      <trkpt lat="48.31509" lon="-4.33438">
        <ele>4.2</ele>
        <time>2025-03-27T09:49:52.162Z</time>
      </trkpt>
      <trkpt lat="48.3151" lon="-4.3343">
        <ele>4</ele>
        <time>2025-03-27T09:49:58.488Z</time>
      </trkpt>
      <trkpt lat="48.31511" lon="-4.33421">
        <ele>3.9</ele>
        <time>2025-03-27T09:50:05.152Z</time>
      </trkpt>
      <trkpt lat="48.31512" lon="-4.33412">
        <ele>3.9</ele>
        <time>2025-03-27T09:50:12.580Z</time>
      </trkpt>
      <trkpt lat="48.31512" lon="-4.33404">
        <ele>3.8</ele>
        <time>2025-03-27T09:50:19.163Z</time>
      </trkpt>
      <trkpt lat="48.31511" lon="-4.33395">
        <ele>3.8</ele>
        <time>2025-03-27T09:50:26.109Z</time>
      </trkpt>
      <trkpt lat="48.31512" lon="-4.33387">
        <ele>3.9</ele>
        <time>2025-03-27T09:50:33.128Z</time>
      </trkpt>
      <trkpt lat="48.3151" lon="-4.33378">
        <ele>4</ele>
        <time>2025-03-27T09:50:41.242Z</time>
      </trkpt>
      <trkpt lat="48.31508" lon="-4.33369">
        <ele>4.1</ele>
        <time>2025-03-27T09:50:49.356Z</time>
      </trkpt>
      <trkpt lat="48.31506" lon="-4.33363">
        <ele>4.1</ele>
        <time>2025-03-27T09:50:55.120Z</time>
      </trkpt>
      <trkpt lat="48.31503" lon="-4.33357">
        <ele>4.1</ele>
        <time>2025-03-27T09:51:00.884Z</time>
      </trkpt>
      <trkpt lat="48.31502" lon="-4.3335">
        <ele>4.1</ele>
        <time>2025-03-27T09:51:06.712Z</time>
      </trkpt>
      <trkpt lat="48.31501" lon="-4.33343">
        <ele>4.1</ele>
        <time>2025-03-27T09:51:12.540Z</time>
      </trkpt>
      <trkpt lat="48.31499" lon="-4.33336">
        <ele>3.9</ele>
        <time>2025-03-27T09:51:18.421Z</time>
      </trkpt>
      <trkpt lat="48.31497" lon="-4.33328">
        <ele>4</ele>
        <time>2025-03-27T09:51:25.391Z</time>
      </trkpt>
      <trkpt lat="48.31496" lon="-4.33319">
        <ele>4.2</ele>
        <time>2025-03-27T09:51:33.753Z</time>
      </trkpt>
      <trkpt lat="48.31494" lon="-4.3331">
        <ele>4.4</ele>
        <time>2025-03-27T09:51:42.115Z</time>
      </trkpt>
      <trkpt lat="48.31494" lon="-4.33303">
        <ele>4.6</ele>
        <time>2025-03-27T09:51:49.044Z</time>
      </trkpt>
      <trkpt lat="48.31494" lon="-4.33295">
        <ele>4.7</ele>
        <time>2025-03-27T09:51:55.543Z</time>
      </trkpt>
      <trkpt lat="48.31493" lon="-4.33286">
        <ele>4.7</ele>
        <time>2025-03-27T09:52:03.373Z</time>
      </trkpt>
      <trkpt lat="48.31492" lon="-4.33276">
        <ele>4.8</ele>
        <time>2025-03-27T09:52:11.592Z</time>
      </trkpt>
      <trkpt lat="48.31492" lon="-4.33269">
        <ele>4.9</ele>
        <time>2025-03-27T09:52:18.091Z</time>
      </trkpt>
      <trkpt lat="48.31492" lon="-4.33261">
        <ele>5.1</ele>
        <time>2025-03-27T09:52:25.020Z</time>
      </trkpt>
      <trkpt lat="48.31492" lon="-4.33253">
        <ele>5.3</ele>
        <time>2025-03-27T09:52:32.380Z</time>
      </trkpt>
      <trkpt lat="48.31491" lon="-4.33245">
        <ele>5.7</ele>
        <time>2025-03-27T09:52:40.707Z</time>
      </trkpt>
      <trkpt lat="48.31492" lon="-4.33238">
        <ele>6.2</ele>
        <time>2025-03-27T09:52:48.940Z</time>
      </trkpt>
      <trkpt lat="48.31493" lon="-4.33231">
        <ele>6.7</ele>
        <time>2025-03-27T09:52:57.173Z</time>
      </trkpt>
      <trkpt lat="48.31494" lon="-4.33224">
        <ele>7.2</ele>
        <time>2025-03-27T09:53:05.406Z</time>
      </trkpt>
      <trkpt lat="48.31495" lon="-4.33216">
        <ele>7.5</ele>
        <time>2025-03-27T09:53:13.703Z</time>
      </trkpt>
      <trkpt lat="48.31496" lon="-4.33207">
        <ele>7.6</ele>
        <time>2025-03-27T09:53:21.121Z</time>
      </trkpt>
      <trkpt lat="48.31498" lon="-4.33196">
        <ele>7.8</ele>
        <time>2025-03-27T09:53:31.202Z</time>
      </trkpt>
      <trkpt lat="48.31498" lon="-4.33185">
        <ele>8.1</ele>
        <time>2025-03-27T09:53:41.817Z</time>
      </trkpt>
      <trkpt lat="48.31497" lon="-4.33173">
        <ele>8.4</ele>
        <time>2025-03-27T09:53:52.431Z</time>
      </trkpt>
      <trkpt lat="48.315" lon="-4.33163">
        <ele>9.2</ele>
        <time>2025-03-27T09:54:05.384Z</time>
      </trkpt>
      <trkpt lat="48.31502" lon="-4.33152">
        <ele>10.4</ele>
        <time>2025-03-27T09:54:21.147Z</time>
      </trkpt>
      <trkpt lat="48.31508" lon="-4.33143">
        <ele>11.9</ele>
        <time>2025-03-27T09:54:40.154Z</time>
      </trkpt>
      <trkpt lat="48.31513" lon="-4.33133">
        <ele>13</ele>
        <time>2025-03-27T09:54:56.062Z</time>
      </trkpt>
      <trkpt lat="48.31515" lon="-4.33125">
        <ele>13.4</ele>
        <time>2025-03-27T09:55:04.787Z</time>
      </trkpt>
      <trkpt lat="48.31516" lon="-4.33121">
        <ele>13.6</ele>
        <time>2025-03-27T09:55:09.150Z</time>
      </trkpt>
      <trkpt lat="48.31519" lon="-4.33109">
        <ele>14.1</ele>
        <time>2025-03-27T09:55:21.735Z</time>
      </trkpt>
      <trkpt lat="48.31521" lon="-4.33104">
        <ele>14.5</ele>
        <time>2025-03-27T09:55:28.399Z</time>
      </trkpt>
      <trkpt lat="48.31524" lon="-4.33095">
        <ele>15.1</ele>
        <time>2025-03-27T09:55:39.372Z</time>
      </trkpt>
      <trkpt lat="48.31528" lon="-4.33088">
        <ele>15.9</ele>
        <time>2025-03-27T09:55:50.987Z</time>
      </trkpt>
      <trkpt lat="48.3153" lon="-4.33082">
        <ele>16.4</ele>
        <time>2025-03-27T09:55:59.343Z</time>
      </trkpt>
      <trkpt lat="48.31533" lon="-4.33075">
        <ele>16.7</ele>
        <time>2025-03-27T09:56:06.606Z</time>
      </trkpt>
      <trkpt lat="48.31535" lon="-4.33069">
        <ele>17</ele>
        <time>2025-03-27T09:56:13.870Z</time>
      </trkpt>
      <trkpt lat="48.31537" lon="-4.33062">
        <ele>17.3</ele>
        <time>2025-03-27T09:56:21.133Z</time>
      </trkpt>
      <trkpt lat="48.31541" lon="-4.33057">
        <ele>17.9</ele>
        <time>2025-03-27T09:56:30.462Z</time>
      </trkpt>
      <trkpt lat="48.31545" lon="-4.3305">
        <ele>18.4</ele>
        <time>2025-03-27T09:56:40.244Z</time>
      </trkpt>
      <trkpt lat="48.31549" lon="-4.33043">
        <ele>18.8</ele>
        <time>2025-03-27T09:56:49.503Z</time>
      </trkpt>
      <trkpt lat="48.31551" lon="-4.3304">
        <ele>19</ele>
        <time>2025-03-27T09:56:53.846Z</time>
      </trkpt>
      <trkpt lat="48.31553" lon="-4.33037">
        <ele>19.1</ele>
        <time>2025-03-27T09:56:57.711Z</time>
      </trkpt>
      <trkpt lat="48.31559" lon="-4.33028">
        <ele>19.4</ele>
        <time>2025-03-27T09:57:09.307Z</time>
      </trkpt>
      <trkpt lat="48.31565" lon="-4.33019">
        <ele>20.3</ele>
        <time>2025-03-27T09:57:24.021Z</time>
      </trkpt>
      <trkpt lat="48.31566" lon="-4.33017">
        <ele>20.5</ele>
        <time>2025-03-27T09:57:27.058Z</time>
      </trkpt>
      <trkpt lat="48.3157" lon="-4.3301">
        <ele>21.2</ele>
        <time>2025-03-27T09:57:38.014Z</time>
      </trkpt>
      <trkpt lat="48.31574" lon="-4.33004">
        <ele>21.8</ele>
        <time>2025-03-27T09:57:47.824Z</time>
      </trkpt>
      <trkpt lat="48.31578" lon="-4.32996">
        <ele>22.3</ele>
        <time>2025-03-27T09:57:58.206Z</time>
      </trkpt>
      <trkpt lat="48.3158" lon="-4.32993">
        <ele>22.4</ele>
        <time>2025-03-27T09:58:02.071Z</time>
        <extensions>
          <visugpx:TrkExtension xmlns:visugpx="https://www.visugpx.com/editgpx/">
            <visugpx:node>12</visugpx:node>
            </visugpx:TrkExtension>
        </extensions>
      </trkpt>
      <trkpt lat="48.31581" lon="-4.32989">
        <ele>22.4</ele>
        <time>2025-03-27T09:58:05.550Z</time>
      </trkpt>
      <trkpt lat="48.31575" lon="-4.3298">
        <ele>21.6</ele>
        <time>2025-03-27T09:58:14.627Z</time>
      </trkpt>
      <trkpt lat="48.31569" lon="-4.32971">
        <ele>21</ele>
        <time>2025-03-27T09:58:23.703Z</time>
      </trkpt>
      <trkpt lat="48.31565" lon="-4.32965">
        <ele>20.9</ele>
        <time>2025-03-27T09:58:30.256Z</time>
      </trkpt>
      <trkpt lat="48.3156" lon="-4.32959">
        <ele>20.5</ele>
        <time>2025-03-27T09:58:37.108Z</time>
      </trkpt>
      <trkpt lat="48.31555" lon="-4.32955">
        <ele>19.9</ele>
        <time>2025-03-27T09:58:43.349Z</time>
      </trkpt>
      <trkpt lat="48.3155" lon="-4.3295">
        <ele>19.4</ele>
        <time>2025-03-27T09:58:49.590Z</time>
      </trkpt>
      <trkpt lat="48.31546" lon="-4.32945">
        <ele>19</ele>
        <time>2025-03-27T09:58:55.161Z</time>
      </trkpt>
      <trkpt lat="48.3154" lon="-4.32943">
        <ele>18.3</ele>
        <time>2025-03-27T09:59:01.743Z</time>
      </trkpt>
      <trkpt lat="48.31532" lon="-4.32941">
        <ele>17.5</ele>
        <time>2025-03-27T09:59:10.429Z</time>
      </trkpt>
      <trkpt lat="48.31531" lon="-4.32941">
        <ele>17.4</ele>
        <time>2025-03-27T09:59:11.500Z</time>
      </trkpt>
      <trkpt lat="48.31526" lon="-4.32935">
        <ele>16.1</ele>
        <time>2025-03-27T09:59:18.351Z</time>
      </trkpt>
      <trkpt lat="48.31527" lon="-4.3293">
        <ele>16.6</ele>
        <time>2025-03-27T09:59:25.258Z</time>
      </trkpt>
      <trkpt lat="48.31529" lon="-4.32923">
        <ele>17.2</ele>
        <time>2025-03-27T09:59:34.397Z</time>
      </trkpt>
      <trkpt lat="48.31532" lon="-4.32917">
        <ele>17.5</ele>
        <time>2025-03-27T09:59:41.836Z</time>
      </trkpt>
      <trkpt lat="48.31534" lon="-4.3291">
        <ele>17.1</ele>
        <time>2025-03-27T09:59:47.214Z</time>
      </trkpt>
      <trkpt lat="48.31536" lon="-4.32903">
        <ele>16.9</ele>
        <time>2025-03-27T09:59:52.667Z</time>
      </trkpt>
      <trkpt lat="48.31537" lon="-4.32895">
        <ele>16.5</ele>
        <time>2025-03-27T09:59:58.465Z</time>
      </trkpt>
      <trkpt lat="48.31538" lon="-4.32888">
        <ele>16.3</ele>
        <time>2025-03-27T10:00:03.603Z</time>
      </trkpt>
      <trkpt lat="48.31539" lon="-4.32878">
        <ele>16</ele>
        <time>2025-03-27T10:00:10.806Z</time>
      </trkpt>
      <trkpt lat="48.3154" lon="-4.32868">
        <ele>15.8</ele>
        <time>2025-03-27T10:00:18.330Z</time>
      </trkpt>
      <trkpt lat="48.3154" lon="-4.32861">
        <ele>15.4</ele>
        <time>2025-03-27T10:00:23.316Z</time>
      </trkpt>
      <trkpt lat="48.3154" lon="-4.32854">
        <ele>15.4</ele>
        <time>2025-03-27T10:00:29.014Z</time>
      </trkpt>
      <trkpt lat="48.3154" lon="-4.32847">
        <ele>15.5</ele>
        <time>2025-03-27T10:00:35.107Z</time>
      </trkpt>
      <trkpt lat="48.3154" lon="-4.3284">
        <ele>15.5</ele>
        <time>2025-03-27T10:00:40.805Z</time>
      </trkpt>
      <trkpt lat="48.31535" lon="-4.32833">
        <ele>14.1</ele>
        <time>2025-03-27T10:00:48.122Z</time>
      </trkpt>
      <trkpt lat="48.31531" lon="-4.32828">
        <ele>13.1</ele>
        <time>2025-03-27T10:00:53.927Z</time>
      </trkpt>
      <trkpt lat="48.31527" lon="-4.32822">
        <ele>12.1</ele>
        <time>2025-03-27T10:00:59.732Z</time>
      </trkpt>
      <trkpt lat="48.31524" lon="-4.32817">
        <ele>11</ele>
        <time>2025-03-27T10:01:04.799Z</time>
      </trkpt>
      <trkpt lat="48.31521" lon="-4.32811">
        <ele>9.9</ele>
        <time>2025-03-27T10:01:09.865Z</time>
      </trkpt>
      <trkpt lat="48.31523" lon="-4.32805">
        <ele>11</ele>
        <time>2025-03-27T10:01:23.095Z</time>
      </trkpt>
      <trkpt lat="48.31526" lon="-4.32799">
        <ele>11.3</ele>
        <time>2025-03-27T10:01:30.013Z</time>
      </trkpt>
      <trkpt lat="48.31528" lon="-4.32793">
        <ele>11.2</ele>
        <time>2025-03-27T10:01:35.260Z</time>
      </trkpt>
      <trkpt lat="48.3153" lon="-4.32787">
        <ele>11</ele>
        <time>2025-03-27T10:01:40.180Z</time>
      </trkpt>
      <trkpt lat="48.31533" lon="-4.3278">
        <ele>11</ele>
        <time>2025-03-27T10:01:46.959Z</time>
      </trkpt>
      <trkpt lat="48.31536" lon="-4.32773">
        <ele>10.9</ele>
        <time>2025-03-27T10:01:53.375Z</time>
      </trkpt>
      <trkpt lat="48.31537" lon="-4.32764">
        <ele>9.6</ele>
        <time>2025-03-27T10:01:59.808Z</time>
      </trkpt>
      <trkpt lat="48.31537" lon="-4.32755">
        <ele>8.4</ele>
        <time>2025-03-27T10:02:06.240Z</time>
      </trkpt>
      <trkpt lat="48.31537" lon="-4.32747">
        <ele>7.9</ele>
        <time>2025-03-27T10:02:11.760Z</time>
      </trkpt>
      <trkpt lat="48.31537" lon="-4.3274">
        <ele>8.5</ele>
        <time>2025-03-27T10:02:21.038Z</time>
      </trkpt>
      <trkpt lat="48.31537" lon="-4.32732">
        <ele>9.2</ele>
        <time>2025-03-27T10:02:30.988Z</time>
      </trkpt>
      <trkpt lat="48.31537" lon="-4.32724">
        <ele>9.8</ele>
        <time>2025-03-27T10:02:40.266Z</time>
      </trkpt>
      <trkpt lat="48.31534" lon="-4.32716">
        <ele>9.7</ele>
        <time>2025-03-27T10:02:47.378Z</time>
        <extensions>
          <visugpx:TrkExtension xmlns:visugpx="https://www.visugpx.com/editgpx/">
            <visugpx:node>13</visugpx:node>
            </visugpx:TrkExtension>
        </extensions>
      </trkpt>
      <trkpt lat="48.31531" lon="-4.32709">
        <ele>9.6</ele>
        <time>2025-03-27T10:02:54.139Z</time>
      </trkpt>
      <trkpt lat="48.31528" lon="-4.32701">
        <ele>9.6</ele>
        <time>2025-03-27T10:03:01.264Z</time>
      </trkpt>
      <trkpt lat="48.31525" lon="-4.32693">
        <ele>9.2</ele>
        <time>2025-03-27T10:03:07.805Z</time>
      </trkpt>
      <trkpt lat="48.31522" lon="-4.32685">
        <ele>8.1</ele>
        <time>2025-03-27T10:03:14.347Z</time>
      </trkpt>
      <trkpt lat="48.31524" lon="-4.32679">
        <ele>8.3</ele>
        <time>2025-03-27T10:03:20.778Z</time>
      </trkpt>
      <trkpt lat="48.31525" lon="-4.32672">
        <ele>8.5</ele>
        <time>2025-03-27T10:03:27.209Z</time>
      </trkpt>
      <trkpt lat="48.31527" lon="-4.32666">
        <ele>8.6</ele>
        <time>2025-03-27T10:03:33.205Z</time>
      </trkpt>
      <trkpt lat="48.31528" lon="-4.32659">
        <ele>8.5</ele>
        <time>2025-03-27T10:03:38.446Z</time>
      </trkpt>
      <trkpt lat="48.3153" lon="-4.32646">
        <ele>7.8</ele>
        <time>2025-03-27T10:03:47.950Z</time>
      </trkpt>
      <trkpt lat="48.31531" lon="-4.32637">
        <ele>7.2</ele>
        <time>2025-03-27T10:03:54.449Z</time>
      </trkpt>
      <trkpt lat="48.3153" lon="-4.32628">
        <ele>5.8</ele>
        <time>2025-03-27T10:04:00.949Z</time>
      </trkpt>
      <trkpt lat="48.31531" lon="-4.32621">
        <ele>5</ele>
        <time>2025-03-27T10:04:06.048Z</time>
      </trkpt>
      <trkpt lat="48.31537" lon="-4.32614">
        <ele>5.3</ele>
        <time>2025-03-27T10:04:16.578Z</time>
      </trkpt>
      <trkpt lat="48.31542" lon="-4.32606">
        <ele>6</ele>
        <time>2025-03-27T10:04:28.805Z</time>
      </trkpt>
      <trkpt lat="48.31543" lon="-4.32603">
        <ele>6.2</ele>
        <time>2025-03-27T10:04:32.463Z</time>
      </trkpt>
      <trkpt lat="48.31544" lon="-4.32597">
        <ele>6.4</ele>
        <time>2025-03-27T10:04:38.338Z</time>
      </trkpt>
      <trkpt lat="48.31545" lon="-4.32593">
        <ele>6.6</ele>
        <time>2025-03-27T10:04:42.701Z</time>
      </trkpt>
      <trkpt lat="48.31547" lon="-4.32585">
        <ele>7.2</ele>
        <time>2025-03-27T10:04:52.547Z</time>
      </trkpt>
      <trkpt lat="48.31551" lon="-4.32575">
        <ele>9</ele>
        <time>2025-03-27T10:05:14.230Z</time>
      </trkpt>
      <trkpt lat="48.31552" lon="-4.3257">
        <ele>9.7</ele>
        <time>2025-03-27T10:05:22.828Z</time>
      </trkpt>
      <trkpt lat="48.31553" lon="-4.32565">
        <ele>10.4</ele>
        <time>2025-03-27T10:05:31.426Z</time>
      </trkpt>
      <trkpt lat="48.31551" lon="-4.32555">
        <ele>10.2</ele>
        <time>2025-03-27T10:05:39.217Z</time>
      </trkpt>
      <trkpt lat="48.31555" lon="-4.32548">
        <ele>12</ele>
        <time>2025-03-27T10:06:01.289Z</time>
      </trkpt>
      <trkpt lat="48.31556" lon="-4.3254">
        <ele>12.7</ele>
        <time>2025-03-27T10:06:11.495Z</time>
      </trkpt>
      <trkpt lat="48.31556" lon="-4.32529">
        <ele>13.1</ele>
        <time>2025-03-27T10:06:22.153Z</time>
      </trkpt>
      <trkpt lat="48.31556" lon="-4.32525">
        <ele>12.2</ele>
        <time>2025-03-27T10:06:25.002Z</time>
      </trkpt>
      <trkpt lat="48.31559" lon="-4.32522">
        <ele>12.1</ele>
        <time>2025-03-27T10:06:29.057Z</time>
      </trkpt>
      <trkpt lat="48.31562" lon="-4.32516">
        <ele>11.1</ele>
        <time>2025-03-27T10:06:34.404Z</time>
      </trkpt>
      <trkpt lat="48.31566" lon="-4.32505">
        <ele>9.2</ele>
        <time>2025-03-27T10:06:43.333Z</time>
      </trkpt>
      <trkpt lat="48.3157" lon="-4.32501">
        <ele>9.5</ele>
        <time>2025-03-27T10:06:50.515Z</time>
      </trkpt>
      <trkpt lat="48.31572" lon="-4.32495">
        <ele>9.3</ele>
        <time>2025-03-27T10:06:55.295Z</time>
      </trkpt>
      <trkpt lat="48.31575" lon="-4.32493">
        <ele>10.1</ele>
        <time>2025-03-27T10:07:04.914Z</time>
      </trkpt>
      <trkpt lat="48.31578" lon="-4.32491">
        <ele>10.8</ele>
        <time>2025-03-27T10:07:13.424Z</time>
      </trkpt>
      <trkpt lat="48.31586" lon="-4.32488">
        <ele>12.4</ele>
        <time>2025-03-27T10:07:33.248Z</time>
      </trkpt>
      <trkpt lat="48.31586" lon="-4.32483">
        <ele>11.7</ele>
        <time>2025-03-27T10:07:36.809Z</time>
      </trkpt>
      <trkpt lat="48.31588" lon="-4.32477">
        <ele>11.1</ele>
        <time>2025-03-27T10:07:41.589Z</time>
      </trkpt>
      <trkpt lat="48.31588" lon="-4.32472">
        <ele>10.6</ele>
        <time>2025-03-27T10:07:45.151Z</time>
      </trkpt>
      <trkpt lat="48.31589" lon="-4.3247">
        <ele>11.1</ele>
        <time>2025-03-27T10:07:51.318Z</time>
      </trkpt>
      <trkpt lat="48.3159" lon="-4.32468">
        <ele>11.7</ele>
        <time>2025-03-27T10:07:59.225Z</time>
      </trkpt>
      <trkpt lat="48.31592" lon="-4.32465">
        <ele>12.5</ele>
        <time>2025-03-27T10:08:08.966Z</time>
      </trkpt>
      <trkpt lat="48.31593" lon="-4.32464">
        <ele>12.8</ele>
        <time>2025-03-27T10:08:12.573Z</time>
      </trkpt>
      <trkpt lat="48.31593" lon="-4.3246">
        <ele>13.7</ele>
        <time>2025-03-27T10:08:24.115Z</time>
      </trkpt>
      <trkpt lat="48.31593" lon="-4.32456">
        <ele>14.5</ele>
        <time>2025-03-27T10:08:33.984Z</time>
      </trkpt>
      <trkpt lat="48.31592" lon="-4.32453">
        <ele>15.1</ele>
        <time>2025-03-27T10:08:41.235Z</time>
      </trkpt>
      <trkpt lat="48.31592" lon="-4.32451">
        <ele>15.6</ele>
        <time>2025-03-27T10:08:47.954Z</time>
      </trkpt>
      <trkpt lat="48.3159" lon="-4.32445">
        <ele>16.9</ele>
        <time>2025-03-27T10:09:03.871Z</time>
      </trkpt>
      <trkpt lat="48.31589" lon="-4.32442">
        <ele>17.7</ele>
        <time>2025-03-27T10:09:14.386Z</time>
      </trkpt>
      <trkpt lat="48.31588" lon="-4.32439">
        <ele>18.5</ele>
        <time>2025-03-27T10:09:24.900Z</time>
      </trkpt>
      <trkpt lat="48.31586" lon="-4.32433">
        <ele>20.2</ele>
        <time>2025-03-27T10:09:47.889Z</time>
      </trkpt>
      <trkpt lat="48.31584" lon="-4.32428">
        <ele>21.7</ele>
        <time>2025-03-27T10:10:08.319Z</time>
      </trkpt>
      <trkpt lat="48.31583" lon="-4.32424">
        <ele>22.7</ele>
        <time>2025-03-27T10:10:21.355Z</time>
      </trkpt>
      <trkpt lat="48.31582" lon="-4.3242">
        <ele>23.1</ele>
        <time>2025-03-27T10:10:26.941Z</time>
      </trkpt>
      <trkpt lat="48.31581" lon="-4.32413">
        <ele>23.8</ele>
        <time>2025-03-27T10:10:36.518Z</time>
      </trkpt>
      <trkpt lat="48.3158" lon="-4.32408">
        <ele>23.8</ele>
        <time>2025-03-27T10:10:40.768Z</time>
      </trkpt>
      <trkpt lat="48.31579" lon="-4.32404">
        <ele>23.6</ele>
        <time>2025-03-27T10:10:43.812Z</time>
      </trkpt>
      <trkpt lat="48.31577" lon="-4.32397">
        <ele>23.1</ele>
        <time>2025-03-27T10:10:49.238Z</time>
      </trkpt>
      <trkpt lat="48.31576" lon="-4.32394">
        <ele>22.8</ele>
        <time>2025-03-27T10:10:51.628Z</time>
      </trkpt>
      <trkpt lat="48.31573" lon="-4.32385">
        <ele>21.6</ele>
        <time>2025-03-27T10:10:58.799Z</time>
      </trkpt>
      <trkpt lat="48.31572" lon="-4.3238">
        <ele>21.5</ele>
        <time>2025-03-27T10:11:02.695Z</time>
      </trkpt>
      <trkpt lat="48.31572" lon="-4.32378">
        <ele>21.7</ele>
        <time>2025-03-27T10:11:05.403Z</time>
      </trkpt>
      <trkpt lat="48.31571" lon="-4.32373">
        <ele>21.6</ele>
        <time>2025-03-27T10:11:09.299Z</time>
      </trkpt>
      <trkpt lat="48.31572" lon="-4.32367">
        <ele>23</ele>
        <time>2025-03-27T10:11:27.295Z</time>
      </trkpt>
      <trkpt lat="48.31572" lon="-4.3236">
        <ele>23.7</ele>
        <time>2025-03-27T10:11:36.775Z</time>
      </trkpt>
      <trkpt lat="48.31573" lon="-4.32352">
        <ele>24.5</ele>
        <time>2025-03-27T10:11:47.694Z</time>
      </trkpt>
      <trkpt lat="48.31572" lon="-4.32344">
        <ele>24.2</ele>
        <time>2025-03-27T10:11:53.492Z</time>
      </trkpt>
      <trkpt lat="48.3157" lon="-4.32335">
        <ele>23.6</ele>
        <time>2025-03-27T10:12:00.251Z</time>
      </trkpt>
      <trkpt lat="48.31569" lon="-4.32326">
        <ele>21.6</ele>
        <time>2025-03-27T10:12:06.750Z</time>
      </trkpt>
      <trkpt lat="48.3157" lon="-4.32319">
        <ele>20.5</ele>
        <time>2025-03-27T10:12:11.850Z</time>
      </trkpt>
      <trkpt lat="48.31573" lon="-4.32313">
        <ele>21</ele>
        <time>2025-03-27T10:12:20.336Z</time>
      </trkpt>
      <trkpt lat="48.31576" lon="-4.32306">
        <ele>21.8</ele>
        <time>2025-03-27T10:12:31.371Z</time>
      </trkpt>
      <trkpt lat="48.31577" lon="-4.32297">
        <ele>21.6</ele>
        <time>2025-03-27T10:12:38.095Z</time>
      </trkpt>
      <trkpt lat="48.31576" lon="-4.32284">
        <ele>19.6</ele>
        <time>2025-03-27T10:12:47.417Z</time>
      </trkpt>
      <trkpt lat="48.31578" lon="-4.32278">
        <ele>20.6</ele>
        <time>2025-03-27T10:12:59.497Z</time>
      </trkpt>
      <trkpt lat="48.3158" lon="-4.3227">
        <ele>21.5</ele>
        <time>2025-03-27T10:13:11.421Z</time>
      </trkpt>
      <trkpt lat="48.3158" lon="-4.3226">
        <ele>20.5</ele>
        <time>2025-03-27T10:13:18.544Z</time>
      </trkpt>
      <trkpt lat="48.3158" lon="-4.32249">
        <ele>19.4</ele>
        <time>2025-03-27T10:13:26.735Z</time>
      </trkpt>
      <trkpt lat="48.3158" lon="-4.32237">
        <ele>18.8</ele>
        <time>2025-03-27T10:13:34.926Z</time>
      </trkpt>
      <trkpt lat="48.31581" lon="-4.32227">
        <ele>18.3</ele>
        <time>2025-03-27T10:13:42.481Z</time>
      </trkpt>
      <trkpt lat="48.31582" lon="-4.32216">
        <ele>17.6</ele>
        <time>2025-03-27T10:13:50.036Z</time>
      </trkpt>
      <trkpt lat="48.31583" lon="-4.32207">
        <ele>16.9</ele>
        <time>2025-03-27T10:13:56.535Z</time>
      </trkpt>
      <trkpt lat="48.31584" lon="-4.32198">
        <ele>16.4</ele>
        <time>2025-03-27T10:14:03.034Z</time>
      </trkpt>
      <trkpt lat="48.31585" lon="-4.32188">
        <ele>16.1</ele>
        <time>2025-03-27T10:14:10.237Z</time>
      </trkpt>
      <trkpt lat="48.31585" lon="-4.32184">
        <ele>16</ele>
        <time>2025-03-27T10:14:13.145Z</time>
      </trkpt>
      <trkpt lat="48.31585" lon="-4.3218">
        <ele>15.9</ele>
        <time>2025-03-27T10:14:16.053Z</time>
      </trkpt>
      <trkpt lat="48.31585" lon="-4.32172">
        <ele>15.6</ele>
        <time>2025-03-27T10:14:21.751Z</time>
      </trkpt>
      <trkpt lat="48.31583" lon="-4.32164">
        <ele>14.9</ele>
        <time>2025-03-27T10:14:27.838Z</time>
      </trkpt>
      <trkpt lat="48.3158" lon="-4.32156">
        <ele>14.6</ele>
        <time>2025-03-27T10:14:34.380Z</time>
      </trkpt>
      <trkpt lat="48.31578" lon="-4.32145">
        <ele>14.2</ele>
        <time>2025-03-27T10:14:42.502Z</time>
      </trkpt>
      <trkpt lat="48.31577" lon="-4.32138">
        <ele>14</ele>
        <time>2025-03-27T10:14:47.640Z</time>
      </trkpt>
      <trkpt lat="48.31577" lon="-4.32131">
        <ele>13.7</ele>
        <time>2025-03-27T10:14:52.626Z</time>
      </trkpt>
      <trkpt lat="48.31579" lon="-4.32122">
        <ele>13.4</ele>
        <time>2025-03-27T10:14:59.385Z</time>
      </trkpt>
      <trkpt lat="48.31582" lon="-4.32114">
        <ele>13.1</ele>
        <time>2025-03-27T10:15:05.926Z</time>
      </trkpt>
      <trkpt lat="48.31584" lon="-4.32105">
        <ele>12.7</ele>
        <time>2025-03-27T10:15:12.685Z</time>
      </trkpt>
      <trkpt lat="48.31585" lon="-4.32098">
        <ele>12.4</ele>
        <time>2025-03-27T10:15:17.785Z</time>
      </trkpt>
      <trkpt lat="48.31584" lon="-4.32091">
        <ele>11.7</ele>
        <time>2025-03-27T10:15:22.884Z</time>
      </trkpt>
      <trkpt lat="48.31584" lon="-4.32082">
        <ele>11</ele>
        <time>2025-03-27T10:15:29.294Z</time>
      </trkpt>
      <trkpt lat="48.31584" lon="-4.32075">
        <ele>10</ele>
        <time>2025-03-27T10:15:34.280Z</time>
      </trkpt>
      <trkpt lat="48.31586" lon="-4.32068">
        <ele>9.9</ele>
        <time>2025-03-27T10:15:40.121Z</time>
      </trkpt>
      <trkpt lat="48.3159" lon="-4.3206">
        <ele>11.1</ele>
        <time>2025-03-27T10:15:55.295Z</time>
      </trkpt>
      <trkpt lat="48.31593" lon="-4.32048">
        <ele>12.9</ele>
        <time>2025-03-27T10:16:17.214Z</time>
      </trkpt>
      <trkpt lat="48.31594" lon="-4.32038">
        <ele>14.1</ele>
        <time>2025-03-27T10:16:32.437Z</time>
      </trkpt>
      <trkpt lat="48.31593" lon="-4.32025">
        <ele>15</ele>
        <time>2025-03-27T10:16:47.400Z</time>
      </trkpt>
      <trkpt lat="48.31592" lon="-4.32019">
        <ele>16.6</ele>
        <time>2025-03-27T10:17:08.201Z</time>
      </trkpt>
      <trkpt lat="48.3159" lon="-4.32012">
        <ele>18.5</ele>
        <time>2025-03-27T10:17:34.973Z</time>
      </trkpt>
      <trkpt lat="48.31587" lon="-4.32006">
        <ele>20.1</ele>
        <time>2025-03-27T10:17:55.087Z</time>
      </trkpt>
      <trkpt lat="48.31583" lon="-4.32">
        <ele>21.8</ele>
        <time>2025-03-27T10:18:16.061Z</time>
      </trkpt>
      <trkpt lat="48.31577" lon="-4.3199">
        <ele>18.5</ele>
        <time>2025-03-27T10:18:25.654Z</time>
      </trkpt>
      <trkpt lat="48.31572" lon="-4.31983">
        <ele>15.8</ele>
        <time>2025-03-27T10:18:33.606Z</time>
      </trkpt>
      <trkpt lat="48.31566" lon="-4.31975">
        <ele>13.6</ele>
        <time>2025-03-27T10:18:41.559Z</time>
      </trkpt>
      <trkpt lat="48.31562" lon="-4.31968">
        <ele>12.7</ele>
        <time>2025-03-27T10:18:47.998Z</time>
      </trkpt>
      <trkpt lat="48.31558" lon="-4.31962">
        <ele>12.6</ele>
        <time>2025-03-27T10:18:54.994Z</time>
      </trkpt>
      <trkpt lat="48.31554" lon="-4.31955">
        <ele>13</ele>
        <time>2025-03-27T10:19:04.105Z</time>
      </trkpt>
      <trkpt lat="48.3155" lon="-4.31948">
        <ele>13.2</ele>
        <time>2025-03-27T10:19:12.276Z</time>
      </trkpt>
      <trkpt lat="48.31543" lon="-4.3194">
        <ele>11.4</ele>
        <time>2025-03-27T10:19:21.693Z</time>
      </trkpt>
      <trkpt lat="48.31538" lon="-4.31934">
        <ele>10.3</ele>
        <time>2025-03-27T10:19:29.185Z</time>
      </trkpt>
      <trkpt lat="48.31532" lon="-4.31927">
        <ele>10</ele>
        <time>2025-03-27T10:19:36.715Z</time>
      </trkpt>
      <trkpt lat="48.31529" lon="-4.31922">
        <ele>10.6</ele>
        <time>2025-03-27T10:19:45.896Z</time>
      </trkpt>
      <trkpt lat="48.31525" lon="-4.31916">
        <ele>11</ele>
        <time>2025-03-27T10:19:53.898Z</time>
      </trkpt>
      <trkpt lat="48.31522" lon="-4.31911">
        <ele>10</ele>
        <time>2025-03-27T10:19:59.320Z</time>
      </trkpt>
      <trkpt lat="48.31518" lon="-4.31905">
        <ele>8.9</ele>
        <time>2025-03-27T10:20:04.742Z</time>
      </trkpt>
      <trkpt lat="48.31515" lon="-4.31897">
        <ele>8.1</ele>
        <time>2025-03-27T10:20:11.284Z</time>
      </trkpt>
      <trkpt lat="48.31512" lon="-4.31889">
        <ele>7.3</ele>
        <time>2025-03-27T10:20:17.825Z</time>
      </trkpt>
      <trkpt lat="48.31509" lon="-4.31878">
        <ele>8.2</ele>
        <time>2025-03-27T10:20:31.928Z</time>
      </trkpt>
      <trkpt lat="48.31508" lon="-4.3187">
        <ele>9.5</ele>
        <time>2025-03-27T10:20:47.563Z</time>
      </trkpt>
      <trkpt lat="48.31506" lon="-4.3186">
        <ele>10.9</ele>
        <time>2025-03-27T10:21:04.759Z</time>
      </trkpt>
      <trkpt lat="48.31504" lon="-4.31853">
        <ele>11.1</ele>
        <time>2025-03-27T10:21:11.784Z</time>
      </trkpt>
      <trkpt lat="48.315" lon="-4.31847">
        <ele>11</ele>
        <time>2025-03-27T10:21:18.336Z</time>
      </trkpt>
      <trkpt lat="48.31496" lon="-4.31844">
        <ele>10.1</ele>
        <time>2025-03-27T10:21:23.124Z</time>
      </trkpt>
      <trkpt lat="48.31492" lon="-4.3184">
        <ele>9.4</ele>
        <time>2025-03-27T10:21:28.269Z</time>
      </trkpt>
      <trkpt lat="48.31486" lon="-4.31836">
        <ele>8.2</ele>
        <time>2025-03-27T10:21:35.298Z</time>
      </trkpt>
      <trkpt lat="48.31483" lon="-4.31831">
        <ele>8</ele>
        <time>2025-03-27T10:21:40.095Z</time>
      </trkpt>
      <trkpt lat="48.31479" lon="-4.31821">
        <ele>8.4</ele>
        <time>2025-03-27T10:21:51.286Z</time>
      </trkpt>
      <trkpt lat="48.31476" lon="-4.31811">
        <ele>9.4</ele>
        <time>2025-03-27T10:22:05.434Z</time>
      </trkpt>
      <trkpt lat="48.31474" lon="-4.31801">
        <ele>10.3</ele>
        <time>2025-03-27T10:22:18.541Z</time>
      </trkpt>
      <trkpt lat="48.31468" lon="-4.31791">
        <ele>9.3</ele>
        <time>2025-03-27T10:22:28.134Z</time>
      </trkpt>
      <trkpt lat="48.31467" lon="-4.31785">
        <ele>9.1</ele>
        <time>2025-03-27T10:22:33.047Z</time>
      </trkpt>
      <trkpt lat="48.31465" lon="-4.31778">
        <ele>8.9</ele>
        <time>2025-03-27T10:22:37.960Z</time>
      </trkpt>
      <trkpt lat="48.31463" lon="-4.31773">
        <ele>8.2</ele>
        <time>2025-03-27T10:22:42.116Z</time>
      </trkpt>
      <trkpt lat="48.31464" lon="-4.31768">
        <ele>8.4</ele>
        <time>2025-03-27T10:22:47.224Z</time>
      </trkpt>
      <trkpt lat="48.31467" lon="-4.3176">
        <ele>9.3</ele>
        <time>2025-03-27T10:22:59.525Z</time>
      </trkpt>
      <trkpt lat="48.31471" lon="-4.31752">
        <ele>10.4</ele>
        <time>2025-03-27T10:23:13.850Z</time>
      </trkpt>
      <trkpt lat="48.31474" lon="-4.31743">
        <ele>10</ele>
        <time>2025-03-27T10:23:20.971Z</time>
      </trkpt>
      <trkpt lat="48.31478" lon="-4.31737">
        <ele>9.6</ele>
        <time>2025-03-27T10:23:26.656Z</time>
      </trkpt>
      <trkpt lat="48.31481" lon="-4.31731">
        <ele>9.4</ele>
        <time>2025-03-27T10:23:32.456Z</time>
      </trkpt>
      <trkpt lat="48.31483" lon="-4.31727">
        <ele>9.3</ele>
        <time>2025-03-27T10:23:36.176Z</time>
      </trkpt>
      <trkpt lat="48.31488" lon="-4.31716">
        <ele>9.3</ele>
        <time>2025-03-27T10:23:46.689Z</time>
      </trkpt>
      <trkpt lat="48.31492" lon="-4.31705">
        <ele>9.8</ele>
        <time>2025-03-27T10:23:59.349Z</time>
      </trkpt>
      <trkpt lat="48.31495" lon="-4.31698">
        <ele>10.4</ele>
        <time>2025-03-27T10:24:09.346Z</time>
      </trkpt>
      <trkpt lat="48.31498" lon="-4.3169">
        <ele>11.1</ele>
        <time>2025-03-27T10:24:19.968Z</time>
      </trkpt>
      <trkpt lat="48.315" lon="-4.31677">
        <ele>11.4</ele>
        <time>2025-03-27T10:24:32.048Z</time>
      </trkpt>
      <trkpt lat="48.31501" lon="-4.31666">
        <ele>11.1</ele>
        <time>2025-03-27T10:24:40.048Z</time>
      </trkpt>
      <trkpt lat="48.31502" lon="-4.31655">
        <ele>9.7</ele>
        <time>2025-03-27T10:24:47.956Z</time>
      </trkpt>
      <trkpt lat="48.31504" lon="-4.31647">
        <ele>9.2</ele>
        <time>2025-03-27T10:24:54.043Z</time>
      </trkpt>
      <trkpt lat="48.31508" lon="-4.31642">
        <ele>9.6</ele>
        <time>2025-03-27T10:25:02.206Z</time>
      </trkpt>
      <trkpt lat="48.31512" lon="-4.31638">
        <ele>10.4</ele>
        <time>2025-03-27T10:25:12.599Z</time>
      </trkpt>
      <trkpt lat="48.31514" lon="-4.3163">
        <ele>10.1</ele>
        <time>2025-03-27T10:25:18.686Z</time>
      </trkpt>
      <trkpt lat="48.31519" lon="-4.31622">
        <ele>11.1</ele>
        <time>2025-03-27T10:25:32.840Z</time>
      </trkpt>
      <trkpt lat="48.31523" lon="-4.31614">
        <ele>12.1</ele>
        <time>2025-03-27T10:25:46.388Z</time>
      </trkpt>
      <trkpt lat="48.31526" lon="-4.31606">
        <ele>12.9</ele>
        <time>2025-03-27T10:25:57.974Z</time>
      </trkpt>
      <trkpt lat="48.31529" lon="-4.31598">
        <ele>13.3</ele>
        <time>2025-03-27T10:26:07.197Z</time>
      </trkpt>
      <trkpt lat="48.31532" lon="-4.31589">
        <ele>13.4</ele>
        <time>2025-03-27T10:26:15.782Z</time>
      </trkpt>
      <trkpt lat="48.31535" lon="-4.31584">
        <ele>13.9</ele>
        <time>2025-03-27T10:26:23.708Z</time>
      </trkpt>
      <trkpt lat="48.31539" lon="-4.31584">
        <ele>14.9</ele>
        <time>2025-03-27T10:26:35.735Z</time>
      </trkpt>
      <trkpt lat="48.31544" lon="-4.3158">
        <ele>15.3</ele>
        <time>2025-03-27T10:26:44.436Z</time>
      </trkpt>
      <trkpt lat="48.31549" lon="-4.31576">
        <ele>15.9</ele>
        <time>2025-03-27T10:26:54.261Z</time>
      </trkpt>
      <trkpt lat="48.31553" lon="-4.31571">
        <ele>16.3</ele>
        <time>2025-03-27T10:27:02.423Z</time>
      </trkpt>
      <trkpt lat="48.31558" lon="-4.31566">
        <ele>16.5</ele>
        <time>2025-03-27T10:27:10.584Z</time>
      </trkpt>
      <trkpt lat="48.3156" lon="-4.31563">
        <ele>16.1</ele>
        <time>2025-03-27T10:27:13.610Z</time>
      </trkpt>
      <trkpt lat="48.31565" lon="-4.31556">
        <ele>15.4</ele>
        <time>2025-03-27T10:27:20.927Z</time>
      </trkpt>
      <trkpt lat="48.3157" lon="-4.31547">
        <ele>13.4</ele>
        <time>2025-03-27T10:27:29.280Z</time>
      </trkpt>
      <trkpt lat="48.31573" lon="-4.31538">
        <ele>12</ele>
        <time>2025-03-27T10:27:36.450Z</time>
      </trkpt>
      <trkpt lat="48.31577" lon="-4.31527">
        <ele>11.3</ele>
        <time>2025-03-27T10:27:45.380Z</time>
      </trkpt>
      <trkpt lat="48.31579" lon="-4.31518">
        <ele>10.1</ele>
        <time>2025-03-27T10:27:52.139Z</time>
      </trkpt>
      <trkpt lat="48.31584" lon="-4.31512">
        <ele>10</ele>
        <time>2025-03-27T10:27:59.604Z</time>
      </trkpt>
      <trkpt lat="48.3159" lon="-4.31507">
        <ele>8.6</ele>
        <time>2025-03-27T10:28:06.951Z</time>
      </trkpt>
      <trkpt lat="48.31594" lon="-4.31503">
        <ele>7.6</ele>
        <time>2025-03-27T10:28:12.096Z</time>
        <extensions>
          <visugpx:TrkExtension xmlns:visugpx="https://www.visugpx.com/editgpx/">
            <visugpx:node>14</visugpx:node>
            </visugpx:TrkExtension>
        </extensions>
      </trkpt>
      <trkpt lat="48.31595" lon="-4.31503">
        <ele>7.6</ele>
        <time>2025-03-27T10:28:13.320Z</time>
      </trkpt>
      <trkpt lat="48.31598" lon="-4.315">
        <ele>7</ele>
        <time>2025-03-27T10:28:17.179Z</time>
      </trkpt>
      <trkpt lat="48.31601" lon="-4.31499">
        <ele>6.9</ele>
        <time>2025-03-27T10:28:20.588Z</time>
      </trkpt>
      <trkpt lat="48.31601" lon="-4.3149">
        <ele>5.7</ele>
        <time>2025-03-27T10:28:27.355Z</time>
      </trkpt>
      <trkpt lat="48.31601" lon="-4.3148">
        <ele>4.6</ele>
        <time>2025-03-27T10:28:34.121Z</time>
      </trkpt>
      <trkpt lat="48.31602" lon="-4.31473">
        <ele>3.7</ele>
        <time>2025-03-27T10:28:39.490Z</time>
      </trkpt>
      <trkpt lat="48.31602" lon="-4.31465">
        <ele>3.6</ele>
        <time>2025-03-27T10:28:45.264Z</time>
      </trkpt>
      <trkpt lat="48.31603" lon="-4.31454">
        <ele>3.5</ele>
        <time>2025-03-27T10:28:53.936Z</time>
      </trkpt>
      <trkpt lat="48.31606" lon="-4.31455">
        <ele>3.7</ele>
        <time>2025-03-27T10:28:58.570Z</time>
      </trkpt>
      <trkpt lat="48.31609" lon="-4.31451">
        <ele>3.9</ele>
        <time>2025-03-27T10:29:04.320Z</time>
      </trkpt>
      <trkpt lat="48.3161" lon="-4.31444">
        <ele>3.9</ele>
        <time>2025-03-27T10:29:10.148Z</time>
      </trkpt>
      <trkpt lat="48.31612" lon="-4.31442">
        <ele>4.1</ele>
        <time>2025-03-27T10:29:14.000Z</time>
        <extensions>
          <visugpx:TrkExtension xmlns:visugpx="https://www.visugpx.com/editgpx/">
            <visugpx:node>15</visugpx:node>
            </visugpx:TrkExtension>
        </extensions>
      </trkpt>
    </trkseg>
  </trk>
</gpx>